<?xml version="1.0" encoding="UTF-8" standalone="no" ?>
<gpx xmlns="http://www.topografix.com/GPX/1/1" xmlns:xsi="http://www.w3.org/2001/XMLSchema-instance" xsi:schemaLocation="http://www.topografix.com/GPX/1/1 http://www.topografix.com/GPX/1/1/gpx.xsd" version="1.1" creator="VisuGPX - https://www.visugpx.com">
  <metadata>
    <name>F-66-Lac des Bouillouses-Etang de Sobirans-2011-07-30</name>
    <desc><![CDATA[F-66-Lac des Bouillouses-Etang de Sobirans
Longueur de l\\\'itinéraire : 12.12 km
Denivelé positif cumulé : 587 m]]></desc>
  </metadata>
  <wpt lat="42.55927" lon="2.00322">
    <ele>2013</ele>
  </wpt>
  <trk>
    <name><![CDATA[F-2011-07-30.gpx]]></name>
    <trkseg>
      <trkpt lat="42.55927" lon="2.00322">
        <ele>2013</ele>
        <time>2011-07-30T10:34:51Z</time>
      </trkpt>
      <trkpt lat="42.55933" lon="2.00312">
        <ele>2013</ele>
        <time>2011-07-30T10:36:11Z</time>
      </trkpt>
      <trkpt lat="42.55928" lon="2.00323">
        <ele>2013</ele>
        <time>2011-07-30T10:37:04Z</time>
      </trkpt>
      <trkpt lat="42.55936" lon="2.00332">
        <ele>2013</ele>
        <time>2011-07-30T10:37:13Z</time>
      </trkpt>
      <trkpt lat="42.55948" lon="2.00349">
        <ele>2013</ele>
        <time>2011-07-30T10:37:40Z</time>
      </trkpt>
      <trkpt lat="42.55954" lon="2.00358">
        <ele>2013</ele>
        <time>2011-07-30T10:37:49Z</time>
      </trkpt>
      <trkpt lat="42.55962" lon="2.00367">
        <ele>2013</ele>
        <time>2011-07-30T10:37:57Z</time>
      </trkpt>
      <trkpt lat="42.5597" lon="2.00375">
        <ele>2013</ele>
        <time>2011-07-30T10:38:07Z</time>
      </trkpt>
      <trkpt lat="42.55978" lon="2.00379">
        <ele>2013</ele>
        <time>2011-07-30T10:38:15Z</time>
      </trkpt>
      <trkpt lat="42.55988" lon="2.00379">
        <ele>2013</ele>
        <time>2011-07-30T10:38:23Z</time>
      </trkpt>
      <trkpt lat="42.55998" lon="2.00378">
        <ele>2013</ele>
        <time>2011-07-30T10:38:31Z</time>
      </trkpt>
      <trkpt lat="42.56004" lon="2.00369">
        <ele>2013</ele>
        <time>2011-07-30T10:38:40Z</time>
      </trkpt>
      <trkpt lat="42.56009" lon="2.00357">
        <ele>2013</ele>
        <time>2011-07-30T10:38:49Z</time>
      </trkpt>
      <trkpt lat="42.56013" lon="2.00345">
        <ele>2013</ele>
        <time>2011-07-30T10:38:57Z</time>
      </trkpt>
      <trkpt lat="42.56021" lon="2.00338">
        <ele>2013</ele>
        <time>2011-07-30T10:39:05Z</time>
      </trkpt>
      <trkpt lat="42.56029" lon="2.00334">
        <ele>2013</ele>
        <time>2011-07-30T10:39:13Z</time>
      </trkpt>
      <trkpt lat="42.56039" lon="2.00332">
        <ele>2013</ele>
        <time>2011-07-30T10:39:21Z</time>
      </trkpt>
      <trkpt lat="42.56043" lon="2.00321">
        <ele>2019</ele>
        <time>2011-07-30T10:39:31Z</time>
      </trkpt>
      <trkpt lat="42.56042" lon="2.00307">
        <ele>2019</ele>
        <time>2011-07-30T10:39:39Z</time>
      </trkpt>
      <trkpt lat="42.56039" lon="2.00294">
        <ele>2019</ele>
        <time>2011-07-30T10:39:47Z</time>
      </trkpt>
      <trkpt lat="42.56038" lon="2.0028">
        <ele>2019</ele>
        <time>2011-07-30T10:39:55Z</time>
      </trkpt>
      <trkpt lat="42.56035" lon="2.00269">
        <ele>2019</ele>
        <time>2011-07-30T10:40:08Z</time>
      </trkpt>
      <trkpt lat="42.56033" lon="2.00255">
        <ele>2019</ele>
        <time>2011-07-30T10:40:15Z</time>
      </trkpt>
      <trkpt lat="42.56031" lon="2.00243">
        <ele>2019</ele>
        <time>2011-07-30T10:40:22Z</time>
      </trkpt>
      <trkpt lat="42.56029" lon="2.0023">
        <ele>2019</ele>
        <time>2011-07-30T10:40:29Z</time>
      </trkpt>
      <trkpt lat="42.56027" lon="2.00217">
        <ele>2019</ele>
        <time>2011-07-30T10:40:36Z</time>
      </trkpt>
      <trkpt lat="42.56024" lon="2.00205">
        <ele>2025</ele>
        <time>2011-07-30T10:40:43Z</time>
      </trkpt>
      <trkpt lat="42.56022" lon="2.00192">
        <ele>2025</ele>
        <time>2011-07-30T10:40:50Z</time>
      </trkpt>
      <trkpt lat="42.5602" lon="2.0018">
        <ele>2025</ele>
        <time>2011-07-30T10:40:57Z</time>
      </trkpt>
      <trkpt lat="42.56018" lon="2.00167">
        <ele>2025</ele>
        <time>2011-07-30T10:41:04Z</time>
      </trkpt>
      <trkpt lat="42.56017" lon="2.00155">
        <ele>2025</ele>
        <time>2011-07-30T10:41:11Z</time>
      </trkpt>
      <trkpt lat="42.56014" lon="2.00143">
        <ele>2025</ele>
        <time>2011-07-30T10:41:17Z</time>
      </trkpt>
      <trkpt lat="42.56012" lon="2.0013">
        <ele>2025</ele>
        <time>2011-07-30T10:41:24Z</time>
      </trkpt>
      <trkpt lat="42.5601" lon="2.00118">
        <ele>2025</ele>
        <time>2011-07-30T10:41:31Z</time>
      </trkpt>
      <trkpt lat="42.56008" lon="2.00104">
        <ele>2025</ele>
        <time>2011-07-30T10:41:38Z</time>
      </trkpt>
      <trkpt lat="42.56006" lon="2.00092">
        <ele>2025</ele>
        <time>2011-07-30T10:41:45Z</time>
      </trkpt>
      <trkpt lat="42.56004" lon="2.00079">
        <ele>2025</ele>
        <time>2011-07-30T10:41:52Z</time>
      </trkpt>
      <trkpt lat="42.56002" lon="2.00067">
        <ele>2025</ele>
        <time>2011-07-30T10:41:59Z</time>
      </trkpt>
      <trkpt lat="42.55999" lon="2.00053">
        <ele>2025</ele>
        <time>2011-07-30T10:42:06Z</time>
      </trkpt>
      <trkpt lat="42.55997" lon="2.0004">
        <ele>2025</ele>
        <time>2011-07-30T10:42:13Z</time>
      </trkpt>
      <trkpt lat="42.55995" lon="2.00028">
        <ele>2025</ele>
        <time>2011-07-30T10:42:20Z</time>
      </trkpt>
      <trkpt lat="42.55992" lon="2.00014">
        <ele>2025</ele>
        <time>2011-07-30T10:42:28Z</time>
      </trkpt>
      <trkpt lat="42.5599" lon="2.00002">
        <ele>2025</ele>
        <time>2011-07-30T10:42:35Z</time>
      </trkpt>
      <trkpt lat="42.55986" lon="1.99989">
        <ele>2025</ele>
        <time>2011-07-30T10:42:42Z</time>
      </trkpt>
      <trkpt lat="42.55985" lon="1.99977">
        <ele>2025</ele>
        <time>2011-07-30T10:42:49Z</time>
      </trkpt>
      <trkpt lat="42.55983" lon="1.99963">
        <ele>2025</ele>
        <time>2011-07-30T10:42:57Z</time>
      </trkpt>
      <trkpt lat="42.55984" lon="1.99951">
        <ele>2025</ele>
        <time>2011-07-30T10:43:04Z</time>
      </trkpt>
      <trkpt lat="42.55982" lon="1.99938">
        <ele>2025</ele>
        <time>2011-07-30T10:43:11Z</time>
      </trkpt>
      <trkpt lat="42.55978" lon="1.99926">
        <ele>2019</ele>
        <time>2011-07-30T10:43:18Z</time>
      </trkpt>
      <trkpt lat="42.55978" lon="1.99913">
        <ele>2019</ele>
        <time>2011-07-30T10:43:25Z</time>
      </trkpt>
      <trkpt lat="42.55977" lon="1.999">
        <ele>2019</ele>
        <time>2011-07-30T10:43:32Z</time>
      </trkpt>
      <trkpt lat="42.55971" lon="1.9989">
        <ele>2019</ele>
        <time>2011-07-30T10:46:36Z</time>
      </trkpt>
      <trkpt lat="42.5597" lon="1.99877">
        <ele>2019</ele>
        <time>2011-07-30T10:46:45Z</time>
      </trkpt>
      <trkpt lat="42.55972" lon="1.99864">
        <ele>2019</ele>
        <time>2011-07-30T10:46:54Z</time>
      </trkpt>
      <trkpt lat="42.5598" lon="1.99858">
        <ele>2019</ele>
        <time>2011-07-30T10:47:02Z</time>
      </trkpt>
      <trkpt lat="42.55988" lon="1.99855">
        <ele>2019</ele>
        <time>2011-07-30T10:47:10Z</time>
      </trkpt>
      <trkpt lat="42.55997" lon="1.99848">
        <ele>2019</ele>
        <time>2011-07-30T10:47:18Z</time>
      </trkpt>
      <trkpt lat="42.56005" lon="1.99842">
        <ele>2019</ele>
        <time>2011-07-30T10:47:25Z</time>
      </trkpt>
      <trkpt lat="42.56012" lon="1.99833">
        <ele>2019</ele>
        <time>2011-07-30T10:47:33Z</time>
      </trkpt>
      <trkpt lat="42.56018" lon="1.99824">
        <ele>2019</ele>
        <time>2011-07-30T10:47:38Z</time>
      </trkpt>
      <trkpt lat="42.56025" lon="1.99814">
        <ele>2019</ele>
        <time>2011-07-30T10:47:45Z</time>
      </trkpt>
      <trkpt lat="42.56031" lon="1.99804">
        <ele>2019</ele>
        <time>2011-07-30T10:47:52Z</time>
      </trkpt>
      <trkpt lat="42.56038" lon="1.99795">
        <ele>2019</ele>
        <time>2011-07-30T10:48:13Z</time>
      </trkpt>
      <trkpt lat="42.56042" lon="1.99783">
        <ele>2019</ele>
        <time>2011-07-30T10:48:22Z</time>
      </trkpt>
      <trkpt lat="42.56039" lon="1.99769">
        <ele>2024</ele>
        <time>2011-07-30T10:48:32Z</time>
      </trkpt>
      <trkpt lat="42.56035" lon="1.99758">
        <ele>2024</ele>
        <time>2011-07-30T10:48:41Z</time>
      </trkpt>
      <trkpt lat="42.56029" lon="1.99748">
        <ele>2024</ele>
        <time>2011-07-30T10:48:49Z</time>
      </trkpt>
      <trkpt lat="42.5602" lon="1.99744">
        <ele>2024</ele>
        <time>2011-07-30T10:48:57Z</time>
      </trkpt>
      <trkpt lat="42.56011" lon="1.99742">
        <ele>2024</ele>
        <time>2011-07-30T10:49:22Z</time>
      </trkpt>
      <trkpt lat="42.56002" lon="1.99739">
        <ele>2024</ele>
        <time>2011-07-30T10:49:30Z</time>
      </trkpt>
      <trkpt lat="42.55992" lon="1.99736">
        <ele>2024</ele>
        <time>2011-07-30T10:49:37Z</time>
      </trkpt>
      <trkpt lat="42.55984" lon="1.99729">
        <ele>2030</ele>
        <time>2011-07-30T10:49:46Z</time>
      </trkpt>
      <trkpt lat="42.5598" lon="1.99716">
        <ele>2030</ele>
        <time>2011-07-30T10:49:55Z</time>
      </trkpt>
      <trkpt lat="42.55976" lon="1.99704">
        <ele>2030</ele>
        <time>2011-07-30T10:50:03Z</time>
      </trkpt>
      <trkpt lat="42.5597" lon="1.99693">
        <ele>2030</ele>
        <time>2011-07-30T10:50:11Z</time>
      </trkpt>
      <trkpt lat="42.55971" lon="1.99679">
        <ele>2030</ele>
        <time>2011-07-30T10:50:20Z</time>
      </trkpt>
      <trkpt lat="42.55974" lon="1.99668">
        <ele>2030</ele>
        <time>2011-07-30T10:50:27Z</time>
      </trkpt>
      <trkpt lat="42.55979" lon="1.99656">
        <ele>2030</ele>
        <time>2011-07-30T10:50:35Z</time>
      </trkpt>
      <trkpt lat="42.55984" lon="1.99645">
        <ele>2030</ele>
        <time>2011-07-30T10:50:43Z</time>
      </trkpt>
      <trkpt lat="42.5599" lon="1.99635">
        <ele>2030</ele>
        <time>2011-07-30T10:50:51Z</time>
      </trkpt>
      <trkpt lat="42.55994" lon="1.99624">
        <ele>2030</ele>
        <time>2011-07-30T10:51:01Z</time>
      </trkpt>
      <trkpt lat="42.55998" lon="1.99612">
        <ele>2030</ele>
        <time>2011-07-30T10:51:12Z</time>
      </trkpt>
      <trkpt lat="42.56" lon="1.99599">
        <ele>2036</ele>
        <time>2011-07-30T10:51:24Z</time>
      </trkpt>
      <trkpt lat="42.56" lon="1.99587">
        <ele>2036</ele>
        <time>2011-07-30T10:51:38Z</time>
      </trkpt>
      <trkpt lat="42.56004" lon="1.99574">
        <ele>2036</ele>
        <time>2011-07-30T10:51:48Z</time>
      </trkpt>
      <trkpt lat="42.56008" lon="1.99563">
        <ele>2036</ele>
        <time>2011-07-30T10:51:59Z</time>
      </trkpt>
      <trkpt lat="42.56009" lon="1.9955">
        <ele>2042</ele>
        <time>2011-07-30T10:52:08Z</time>
      </trkpt>
      <trkpt lat="42.56012" lon="1.99538">
        <ele>2042</ele>
        <time>2011-07-30T10:52:17Z</time>
      </trkpt>
      <trkpt lat="42.56016" lon="1.99528">
        <ele>2042</ele>
        <time>2011-07-30T10:52:29Z</time>
      </trkpt>
      <trkpt lat="42.56022" lon="1.99517">
        <ele>2042</ele>
        <time>2011-07-30T10:52:42Z</time>
      </trkpt>
      <trkpt lat="42.56027" lon="1.99507">
        <ele>2049</ele>
        <time>2011-07-30T10:52:56Z</time>
      </trkpt>
      <trkpt lat="42.56031" lon="1.99495">
        <ele>2049</ele>
        <time>2011-07-30T10:53:10Z</time>
      </trkpt>
      <trkpt lat="42.56029" lon="1.99483">
        <ele>2049</ele>
        <time>2011-07-30T10:53:18Z</time>
      </trkpt>
      <trkpt lat="42.56027" lon="1.99471">
        <ele>2049</ele>
        <time>2011-07-30T10:53:26Z</time>
      </trkpt>
      <trkpt lat="42.56029" lon="1.99459">
        <ele>2049</ele>
        <time>2011-07-30T10:53:42Z</time>
      </trkpt>
      <trkpt lat="42.56031" lon="1.99447">
        <ele>2058</ele>
        <time>2011-07-30T10:55:59Z</time>
      </trkpt>
      <trkpt lat="42.56031" lon="1.99434">
        <ele>2064</ele>
        <time>2011-07-30T10:56:12Z</time>
      </trkpt>
      <trkpt lat="42.56025" lon="1.99425">
        <ele>2064</ele>
        <time>2011-07-30T10:56:21Z</time>
      </trkpt>
      <trkpt lat="42.56017" lon="1.99418">
        <ele>2070</ele>
        <time>2011-07-30T10:56:35Z</time>
      </trkpt>
      <trkpt lat="42.56013" lon="1.99406">
        <ele>2070</ele>
        <time>2011-07-30T10:56:59Z</time>
      </trkpt>
      <trkpt lat="42.56012" lon="1.99394">
        <ele>2070</ele>
        <time>2011-07-30T10:57:15Z</time>
      </trkpt>
      <trkpt lat="42.5601" lon="1.99381">
        <ele>2070</ele>
        <time>2011-07-30T10:57:34Z</time>
      </trkpt>
      <trkpt lat="42.56008" lon="1.99369">
        <ele>2075</ele>
        <time>2011-07-30T10:57:45Z</time>
      </trkpt>
      <trkpt lat="42.56008" lon="1.99357">
        <ele>2075</ele>
        <time>2011-07-30T10:58:24Z</time>
      </trkpt>
      <trkpt lat="42.56004" lon="1.99345">
        <ele>2075</ele>
        <time>2011-07-30T10:58:36Z</time>
      </trkpt>
      <trkpt lat="42.56002" lon="1.99332">
        <ele>2075</ele>
        <time>2011-07-30T10:58:45Z</time>
      </trkpt>
      <trkpt lat="42.55998" lon="1.9932">
        <ele>2075</ele>
        <time>2011-07-30T10:58:57Z</time>
      </trkpt>
      <trkpt lat="42.55996" lon="1.99307">
        <ele>2075</ele>
        <time>2011-07-30T10:59:10Z</time>
      </trkpt>
      <trkpt lat="42.55999" lon="1.99296">
        <ele>2075</ele>
        <time>2011-07-30T10:59:24Z</time>
      </trkpt>
      <trkpt lat="42.56001" lon="1.99282">
        <ele>2068</ele>
        <time>2011-07-30T10:59:54Z</time>
      </trkpt>
      <trkpt lat="42.56001" lon="1.9927">
        <ele>2068</ele>
        <time>2011-07-30T11:00:14Z</time>
      </trkpt>
      <trkpt lat="42.55998" lon="1.99257">
        <ele>2074</ele>
        <time>2011-07-30T11:00:25Z</time>
      </trkpt>
      <trkpt lat="42.55992" lon="1.99248">
        <ele>2074</ele>
        <time>2011-07-30T11:00:35Z</time>
      </trkpt>
      <trkpt lat="42.55996" lon="1.99235">
        <ele>2074</ele>
        <time>2011-07-30T11:00:50Z</time>
      </trkpt>
      <trkpt lat="42.56003" lon="1.99224">
        <ele>2080</ele>
        <time>2011-07-30T11:01:01Z</time>
      </trkpt>
      <trkpt lat="42.56004" lon="1.99211">
        <ele>2080</ele>
        <time>2011-07-30T11:01:11Z</time>
      </trkpt>
      <trkpt lat="42.56008" lon="1.99199">
        <ele>2080</ele>
        <time>2011-07-30T11:01:19Z</time>
      </trkpt>
      <trkpt lat="42.56005" lon="1.99187">
        <ele>2080</ele>
        <time>2011-07-30T11:01:33Z</time>
      </trkpt>
      <trkpt lat="42.5601" lon="1.99177">
        <ele>2080</ele>
        <time>2011-07-30T11:01:43Z</time>
      </trkpt>
      <trkpt lat="42.56008" lon="1.99165">
        <ele>2080</ele>
        <time>2011-07-30T11:01:53Z</time>
      </trkpt>
      <trkpt lat="42.5601" lon="1.99152">
        <ele>2080</ele>
        <time>2011-07-30T11:02:12Z</time>
      </trkpt>
      <trkpt lat="42.56013" lon="1.99139">
        <ele>2080</ele>
        <time>2011-07-30T11:02:35Z</time>
      </trkpt>
      <trkpt lat="42.56018" lon="1.99129">
        <ele>2075</ele>
        <time>2011-07-30T11:02:44Z</time>
      </trkpt>
      <trkpt lat="42.56021" lon="1.99117">
        <ele>2075</ele>
        <time>2011-07-30T11:02:55Z</time>
      </trkpt>
      <trkpt lat="42.56022" lon="1.99104">
        <ele>2087</ele>
        <time>2011-07-30T11:03:06Z</time>
      </trkpt>
      <trkpt lat="42.56025" lon="1.99093">
        <ele>2087</ele>
        <time>2011-07-30T11:03:16Z</time>
      </trkpt>
      <trkpt lat="42.56025" lon="1.9908">
        <ele>2087</ele>
        <time>2011-07-30T11:03:36Z</time>
      </trkpt>
      <trkpt lat="42.56028" lon="1.99068">
        <ele>2087</ele>
        <time>2011-07-30T11:03:51Z</time>
      </trkpt>
      <trkpt lat="42.56037" lon="1.99062">
        <ele>2087</ele>
        <time>2011-07-30T11:04:04Z</time>
      </trkpt>
      <trkpt lat="42.56045" lon="1.99058">
        <ele>2087</ele>
        <time>2011-07-30T11:04:12Z</time>
      </trkpt>
      <trkpt lat="42.56053" lon="1.99051">
        <ele>2087</ele>
        <time>2011-07-30T11:04:20Z</time>
      </trkpt>
      <trkpt lat="42.56059" lon="1.99041">
        <ele>2087</ele>
        <time>2011-07-30T11:04:32Z</time>
      </trkpt>
      <trkpt lat="42.56066" lon="1.99032">
        <ele>2087</ele>
        <time>2011-07-30T11:04:43Z</time>
      </trkpt>
      <trkpt lat="42.56073" lon="1.99023">
        <ele>2092</ele>
        <time>2011-07-30T11:04:52Z</time>
      </trkpt>
      <trkpt lat="42.56077" lon="1.9901">
        <ele>2092</ele>
        <time>2011-07-30T11:05:06Z</time>
      </trkpt>
      <trkpt lat="42.56078" lon="1.98998">
        <ele>2092</ele>
        <time>2011-07-30T11:05:19Z</time>
      </trkpt>
      <trkpt lat="42.56085" lon="1.98988">
        <ele>2092</ele>
        <time>2011-07-30T11:05:35Z</time>
      </trkpt>
      <trkpt lat="42.56091" lon="1.98976">
        <ele>2092</ele>
        <time>2011-07-30T11:05:56Z</time>
      </trkpt>
      <trkpt lat="42.56097" lon="1.98966">
        <ele>2092</ele>
        <time>2011-07-30T11:06:09Z</time>
      </trkpt>
      <trkpt lat="42.56102" lon="1.98954">
        <ele>2092</ele>
        <time>2011-07-30T11:06:24Z</time>
      </trkpt>
      <trkpt lat="42.56108" lon="1.98945">
        <ele>2092</ele>
        <time>2011-07-30T11:06:36Z</time>
      </trkpt>
      <trkpt lat="42.56115" lon="1.98936">
        <ele>2092</ele>
        <time>2011-07-30T11:06:52Z</time>
      </trkpt>
      <trkpt lat="42.56121" lon="1.98926">
        <ele>2092</ele>
        <time>2011-07-30T11:07:05Z</time>
      </trkpt>
      <trkpt lat="42.56128" lon="1.98918">
        <ele>2092</ele>
        <time>2011-07-30T11:07:16Z</time>
      </trkpt>
      <trkpt lat="42.56135" lon="1.9891">
        <ele>2092</ele>
        <time>2011-07-30T11:07:25Z</time>
      </trkpt>
      <trkpt lat="42.56143" lon="1.98902">
        <ele>2092</ele>
        <time>2011-07-30T11:07:34Z</time>
      </trkpt>
      <trkpt lat="42.5615" lon="1.98895">
        <ele>2092</ele>
        <time>2011-07-30T11:07:45Z</time>
      </trkpt>
      <trkpt lat="42.56156" lon="1.98885">
        <ele>2092</ele>
        <time>2011-07-30T11:07:59Z</time>
      </trkpt>
      <trkpt lat="42.56158" lon="1.98874">
        <ele>2092</ele>
        <time>2011-07-30T11:08:12Z</time>
      </trkpt>
      <trkpt lat="42.56163" lon="1.98863">
        <ele>2100</ele>
        <time>2011-07-30T11:08:26Z</time>
      </trkpt>
      <trkpt lat="42.56168" lon="1.98853">
        <ele>2100</ele>
        <time>2011-07-30T11:08:48Z</time>
      </trkpt>
      <trkpt lat="42.56175" lon="1.98844">
        <ele>2100</ele>
        <time>2011-07-30T11:09:01Z</time>
      </trkpt>
      <trkpt lat="42.56182" lon="1.98835">
        <ele>2107</ele>
        <time>2011-07-30T11:09:24Z</time>
      </trkpt>
      <trkpt lat="42.56189" lon="1.98826">
        <ele>2107</ele>
        <time>2011-07-30T11:09:43Z</time>
      </trkpt>
      <trkpt lat="42.56195" lon="1.98816">
        <ele>2107</ele>
        <time>2011-07-30T11:10:24Z</time>
      </trkpt>
      <trkpt lat="42.56204" lon="1.98814">
        <ele>2107</ele>
        <time>2011-07-30T11:10:58Z</time>
      </trkpt>
      <trkpt lat="42.56214" lon="1.98812">
        <ele>2107</ele>
        <time>2011-07-30T11:11:09Z</time>
      </trkpt>
      <trkpt lat="42.56223" lon="1.98807">
        <ele>2107</ele>
        <time>2011-07-30T11:11:20Z</time>
      </trkpt>
      <trkpt lat="42.56231" lon="1.988">
        <ele>2107</ele>
        <time>2011-07-30T11:11:28Z</time>
      </trkpt>
      <trkpt lat="42.56239" lon="1.98791">
        <ele>2107</ele>
        <time>2011-07-30T11:11:39Z</time>
      </trkpt>
      <trkpt lat="42.56247" lon="1.98785">
        <ele>2107</ele>
        <time>2011-07-30T11:11:56Z</time>
      </trkpt>
      <trkpt lat="42.56255" lon="1.98778">
        <ele>2107</ele>
        <time>2011-07-30T11:12:30Z</time>
      </trkpt>
      <trkpt lat="42.56259" lon="1.98768">
        <ele>2107</ele>
        <time>2011-07-30T11:12:42Z</time>
      </trkpt>
      <trkpt lat="42.56264" lon="1.98756">
        <ele>2107</ele>
        <time>2011-07-30T11:12:57Z</time>
      </trkpt>
      <trkpt lat="42.56261" lon="1.98744">
        <ele>2117</ele>
        <time>2011-07-30T11:13:16Z</time>
      </trkpt>
      <trkpt lat="42.56268" lon="1.98737">
        <ele>2117</ele>
        <time>2011-07-30T11:13:28Z</time>
      </trkpt>
      <trkpt lat="42.56275" lon="1.98727">
        <ele>2117</ele>
        <time>2011-07-30T11:13:43Z</time>
      </trkpt>
      <trkpt lat="42.56284" lon="1.98722">
        <ele>2117</ele>
        <time>2011-07-30T11:13:56Z</time>
      </trkpt>
      <trkpt lat="42.56294" lon="1.98723">
        <ele>2117</ele>
        <time>2011-07-30T11:14:07Z</time>
      </trkpt>
      <trkpt lat="42.56303" lon="1.98718">
        <ele>2117</ele>
        <time>2011-07-30T11:14:16Z</time>
      </trkpt>
      <trkpt lat="42.5631" lon="1.98711">
        <ele>2117</ele>
        <time>2011-07-30T11:14:27Z</time>
      </trkpt>
      <trkpt lat="42.56315" lon="1.987">
        <ele>2117</ele>
        <time>2011-07-30T11:14:36Z</time>
      </trkpt>
      <trkpt lat="42.56322" lon="1.98691">
        <ele>2123</ele>
        <time>2011-07-30T11:14:47Z</time>
      </trkpt>
      <trkpt lat="42.56328" lon="1.98682">
        <ele>2123</ele>
        <time>2011-07-30T11:15:00Z</time>
      </trkpt>
      <trkpt lat="42.56336" lon="1.98673">
        <ele>2129</ele>
        <time>2011-07-30T11:15:14Z</time>
      </trkpt>
      <trkpt lat="42.56339" lon="1.98661">
        <ele>2129</ele>
        <time>2011-07-30T11:15:31Z</time>
      </trkpt>
      <trkpt lat="42.56342" lon="1.98649">
        <ele>2129</ele>
        <time>2011-07-30T11:15:45Z</time>
      </trkpt>
      <trkpt lat="42.56346" lon="1.98638">
        <ele>2129</ele>
        <time>2011-07-30T11:15:58Z</time>
      </trkpt>
      <trkpt lat="42.56355" lon="1.98632">
        <ele>2136</ele>
        <time>2011-07-30T11:16:07Z</time>
      </trkpt>
      <trkpt lat="42.56363" lon="1.98624">
        <ele>2136</ele>
        <time>2011-07-30T11:16:19Z</time>
      </trkpt>
      <trkpt lat="42.56371" lon="1.98617">
        <ele>2136</ele>
        <time>2011-07-30T11:16:30Z</time>
      </trkpt>
      <trkpt lat="42.56374" lon="1.98605">
        <ele>2136</ele>
        <time>2011-07-30T11:16:43Z</time>
      </trkpt>
      <trkpt lat="42.56382" lon="1.98598">
        <ele>2144</ele>
        <time>2011-07-30T11:17:19Z</time>
      </trkpt>
      <trkpt lat="42.56391" lon="1.98591">
        <ele>2144</ele>
        <time>2011-07-30T11:17:30Z</time>
      </trkpt>
      <trkpt lat="42.56399" lon="1.98585">
        <ele>2144</ele>
        <time>2011-07-30T11:17:41Z</time>
      </trkpt>
      <trkpt lat="42.56407" lon="1.98578">
        <ele>2144</ele>
        <time>2011-07-30T11:17:49Z</time>
      </trkpt>
      <trkpt lat="42.56417" lon="1.98576">
        <ele>2144</ele>
        <time>2011-07-30T11:18:41Z</time>
      </trkpt>
      <trkpt lat="42.56424" lon="1.98569">
        <ele>2144</ele>
        <time>2011-07-30T11:18:49Z</time>
      </trkpt>
      <trkpt lat="42.56431" lon="1.98558">
        <ele>2144</ele>
        <time>2011-07-30T11:18:57Z</time>
      </trkpt>
      <trkpt lat="42.5643" lon="1.98546">
        <ele>2144</ele>
        <time>2011-07-30T11:19:06Z</time>
      </trkpt>
      <trkpt lat="42.56429" lon="1.98533">
        <ele>2144</ele>
        <time>2011-07-30T11:19:16Z</time>
      </trkpt>
      <trkpt lat="42.56431" lon="1.9852">
        <ele>2144</ele>
        <time>2011-07-30T11:19:28Z</time>
      </trkpt>
      <trkpt lat="42.56438" lon="1.9851">
        <ele>2150</ele>
        <time>2011-07-30T11:19:35Z</time>
      </trkpt>
      <trkpt lat="42.56437" lon="1.98497">
        <ele>2150</ele>
        <time>2011-07-30T11:19:43Z</time>
      </trkpt>
      <trkpt lat="42.56433" lon="1.98486">
        <ele>2150</ele>
        <time>2011-07-30T11:19:52Z</time>
      </trkpt>
      <trkpt lat="42.56429" lon="1.98475">
        <ele>2150</ele>
        <time>2011-07-30T11:20:01Z</time>
      </trkpt>
      <trkpt lat="42.56426" lon="1.98462">
        <ele>2150</ele>
        <time>2011-07-30T11:20:10Z</time>
      </trkpt>
      <trkpt lat="42.56421" lon="1.98449">
        <ele>2150</ele>
        <time>2011-07-30T11:20:17Z</time>
      </trkpt>
      <trkpt lat="42.56422" lon="1.98435">
        <ele>2150</ele>
        <time>2011-07-30T11:20:27Z</time>
      </trkpt>
      <trkpt lat="42.56423" lon="1.98421">
        <ele>2150</ele>
        <time>2011-07-30T11:20:36Z</time>
      </trkpt>
      <trkpt lat="42.56425" lon="1.98408">
        <ele>2150</ele>
        <time>2011-07-30T11:20:45Z</time>
      </trkpt>
      <trkpt lat="42.56432" lon="1.98398">
        <ele>2150</ele>
        <time>2011-07-30T11:20:52Z</time>
      </trkpt>
      <trkpt lat="42.56431" lon="1.98385">
        <ele>2150</ele>
        <time>2011-07-30T11:21:01Z</time>
      </trkpt>
      <trkpt lat="42.56428" lon="1.98372">
        <ele>2150</ele>
        <time>2011-07-30T11:21:09Z</time>
      </trkpt>
      <trkpt lat="42.56427" lon="1.9836">
        <ele>2150</ele>
        <time>2011-07-30T11:21:16Z</time>
      </trkpt>
      <trkpt lat="42.56431" lon="1.98348">
        <ele>2150</ele>
        <time>2011-07-30T11:21:24Z</time>
      </trkpt>
      <trkpt lat="42.56435" lon="1.98336">
        <ele>2150</ele>
        <time>2011-07-30T11:21:32Z</time>
      </trkpt>
      <trkpt lat="42.56442" lon="1.98327">
        <ele>2150</ele>
        <time>2011-07-30T11:21:41Z</time>
      </trkpt>
      <trkpt lat="42.56448" lon="1.98317">
        <ele>2157</ele>
        <time>2011-07-30T11:22:08Z</time>
      </trkpt>
      <trkpt lat="42.56452" lon="1.98305">
        <ele>2157</ele>
        <time>2011-07-30T11:22:20Z</time>
      </trkpt>
      <trkpt lat="42.56456" lon="1.98294">
        <ele>2157</ele>
        <time>2011-07-30T11:22:30Z</time>
      </trkpt>
      <trkpt lat="42.56466" lon="1.98291">
        <ele>2157</ele>
        <time>2011-07-30T11:22:36Z</time>
      </trkpt>
      <trkpt lat="42.56472" lon="1.98281">
        <ele>2157</ele>
        <time>2011-07-30T11:22:46Z</time>
      </trkpt>
      <trkpt lat="42.56479" lon="1.98272">
        <ele>2157</ele>
        <time>2011-07-30T11:22:57Z</time>
      </trkpt>
      <trkpt lat="42.56488" lon="1.98266">
        <ele>2157</ele>
        <time>2011-07-30T11:23:07Z</time>
      </trkpt>
      <trkpt lat="42.56494" lon="1.98256">
        <ele>2157</ele>
        <time>2011-07-30T11:23:18Z</time>
      </trkpt>
      <trkpt lat="42.56498" lon="1.98245">
        <ele>2157</ele>
        <time>2011-07-30T11:23:31Z</time>
      </trkpt>
      <trkpt lat="42.56507" lon="1.98241">
        <ele>2157</ele>
        <time>2011-07-30T11:23:44Z</time>
      </trkpt>
      <trkpt lat="42.56517" lon="1.98238">
        <ele>2163</ele>
        <time>2011-07-30T11:24:05Z</time>
      </trkpt>
      <trkpt lat="42.56508" lon="1.98242">
        <ele>2158</ele>
        <time>2011-07-30T11:24:35Z</time>
      </trkpt>
      <trkpt lat="42.56516" lon="1.98236">
        <ele>2158</ele>
        <time>2011-07-30T11:25:21Z</time>
      </trkpt>
      <trkpt lat="42.56525" lon="1.98229">
        <ele>2163</ele>
        <time>2011-07-30T11:25:30Z</time>
      </trkpt>
      <trkpt lat="42.56531" lon="1.98219">
        <ele>2163</ele>
        <time>2011-07-30T11:25:40Z</time>
      </trkpt>
      <trkpt lat="42.56537" lon="1.9821">
        <ele>2163</ele>
        <time>2011-07-30T11:25:51Z</time>
      </trkpt>
      <trkpt lat="42.56542" lon="1.98198">
        <ele>2163</ele>
        <time>2011-07-30T11:26:00Z</time>
      </trkpt>
      <trkpt lat="42.56545" lon="1.98186">
        <ele>2172</ele>
        <time>2011-07-30T11:26:09Z</time>
      </trkpt>
      <trkpt lat="42.56544" lon="1.98174">
        <ele>2172</ele>
        <time>2011-07-30T11:26:19Z</time>
      </trkpt>
      <trkpt lat="42.56539" lon="1.98161">
        <ele>2172</ele>
        <time>2011-07-30T11:26:29Z</time>
      </trkpt>
      <trkpt lat="42.56535" lon="1.9815">
        <ele>2172</ele>
        <time>2011-07-30T11:26:37Z</time>
      </trkpt>
      <trkpt lat="42.56529" lon="1.9814">
        <ele>2172</ele>
        <time>2011-07-30T11:26:47Z</time>
      </trkpt>
      <trkpt lat="42.56527" lon="1.98127">
        <ele>2172</ele>
        <time>2011-07-30T11:26:57Z</time>
      </trkpt>
      <trkpt lat="42.56525" lon="1.98115">
        <ele>2172</ele>
        <time>2011-07-30T11:27:05Z</time>
      </trkpt>
      <trkpt lat="42.56518" lon="1.98106">
        <ele>2172</ele>
        <time>2011-07-30T11:27:15Z</time>
      </trkpt>
      <trkpt lat="42.56514" lon="1.98094">
        <ele>2172</ele>
        <time>2011-07-30T11:27:26Z</time>
      </trkpt>
      <trkpt lat="42.56509" lon="1.98082">
        <ele>2172</ele>
        <time>2011-07-30T11:27:38Z</time>
      </trkpt>
      <trkpt lat="42.56506" lon="1.98069">
        <ele>2172</ele>
        <time>2011-07-30T11:27:48Z</time>
      </trkpt>
      <trkpt lat="42.56503" lon="1.98057">
        <ele>2172</ele>
        <time>2011-07-30T11:27:56Z</time>
      </trkpt>
      <trkpt lat="42.56503" lon="1.98044">
        <ele>2172</ele>
        <time>2011-07-30T11:28:05Z</time>
      </trkpt>
      <trkpt lat="42.56502" lon="1.98031">
        <ele>2172</ele>
        <time>2011-07-30T11:28:15Z</time>
      </trkpt>
      <trkpt lat="42.56499" lon="1.98019">
        <ele>2172</ele>
        <time>2011-07-30T11:28:24Z</time>
      </trkpt>
      <trkpt lat="42.56497" lon="1.98006">
        <ele>2172</ele>
        <time>2011-07-30T11:28:33Z</time>
      </trkpt>
      <trkpt lat="42.56494" lon="1.97994">
        <ele>2172</ele>
        <time>2011-07-30T11:28:40Z</time>
      </trkpt>
      <trkpt lat="42.56491" lon="1.97982">
        <ele>2172</ele>
        <time>2011-07-30T11:28:49Z</time>
      </trkpt>
      <trkpt lat="42.56496" lon="1.97971">
        <ele>2172</ele>
        <time>2011-07-30T11:29:00Z</time>
      </trkpt>
      <trkpt lat="42.56503" lon="1.9796">
        <ele>2172</ele>
        <time>2011-07-30T11:29:10Z</time>
      </trkpt>
      <trkpt lat="42.56496" lon="1.97951">
        <ele>2172</ele>
        <time>2011-07-30T11:29:50Z</time>
      </trkpt>
      <trkpt lat="42.56487" lon="1.97948">
        <ele>2172</ele>
        <time>2011-07-30T11:29:58Z</time>
      </trkpt>
      <trkpt lat="42.5648" lon="1.97939">
        <ele>2172</ele>
        <time>2011-07-30T11:30:09Z</time>
      </trkpt>
      <trkpt lat="42.56472" lon="1.97933">
        <ele>2172</ele>
        <time>2011-07-30T11:30:23Z</time>
      </trkpt>
      <trkpt lat="42.56464" lon="1.97927">
        <ele>2172</ele>
        <time>2011-07-30T11:31:07Z</time>
      </trkpt>
      <trkpt lat="42.56458" lon="1.97918">
        <ele>2172</ele>
        <time>2011-07-30T11:31:17Z</time>
      </trkpt>
      <trkpt lat="42.56463" lon="1.97907">
        <ele>2172</ele>
        <time>2011-07-30T11:31:28Z</time>
      </trkpt>
      <trkpt lat="42.56463" lon="1.97894">
        <ele>2167</ele>
        <time>2011-07-30T11:31:40Z</time>
      </trkpt>
      <trkpt lat="42.56463" lon="1.97882">
        <ele>2167</ele>
        <time>2011-07-30T11:31:48Z</time>
      </trkpt>
      <trkpt lat="42.5646" lon="1.97868">
        <ele>2167</ele>
        <time>2011-07-30T11:32:47Z</time>
      </trkpt>
      <trkpt lat="42.56458" lon="1.97856">
        <ele>2167</ele>
        <time>2011-07-30T11:32:58Z</time>
      </trkpt>
      <trkpt lat="42.5646" lon="1.97843">
        <ele>2167</ele>
        <time>2011-07-30T11:33:09Z</time>
      </trkpt>
      <trkpt lat="42.56462" lon="1.97829">
        <ele>2167</ele>
        <time>2011-07-30T11:33:17Z</time>
      </trkpt>
      <trkpt lat="42.5646" lon="1.97816">
        <ele>2167</ele>
        <time>2011-07-30T11:33:26Z</time>
      </trkpt>
      <trkpt lat="42.56454" lon="1.97805">
        <ele>2167</ele>
        <time>2011-07-30T11:33:47Z</time>
      </trkpt>
      <trkpt lat="42.56452" lon="1.97793">
        <ele>2167</ele>
        <time>2011-07-30T11:33:57Z</time>
      </trkpt>
      <trkpt lat="42.56454" lon="1.97779">
        <ele>2167</ele>
        <time>2011-07-30T11:34:06Z</time>
      </trkpt>
      <trkpt lat="42.56455" lon="1.97766">
        <ele>2167</ele>
        <time>2011-07-30T11:34:16Z</time>
      </trkpt>
      <trkpt lat="42.56454" lon="1.97752">
        <ele>2167</ele>
        <time>2011-07-30T11:34:27Z</time>
      </trkpt>
      <trkpt lat="42.5645" lon="1.97741">
        <ele>2167</ele>
        <time>2011-07-30T11:34:36Z</time>
      </trkpt>
      <trkpt lat="42.56446" lon="1.97729">
        <ele>2167</ele>
        <time>2011-07-30T11:34:45Z</time>
      </trkpt>
      <trkpt lat="42.56444" lon="1.97717">
        <ele>2167</ele>
        <time>2011-07-30T11:34:55Z</time>
      </trkpt>
      <trkpt lat="42.56451" lon="1.97707">
        <ele>2167</ele>
        <time>2011-07-30T11:35:05Z</time>
      </trkpt>
      <trkpt lat="42.56453" lon="1.97694">
        <ele>2167</ele>
        <time>2011-07-30T11:35:16Z</time>
      </trkpt>
      <trkpt lat="42.56455" lon="1.97681">
        <ele>2167</ele>
        <time>2011-07-30T11:35:25Z</time>
      </trkpt>
      <trkpt lat="42.56458" lon="1.97669">
        <ele>2167</ele>
        <time>2011-07-30T11:35:35Z</time>
      </trkpt>
      <trkpt lat="42.5646" lon="1.97656">
        <ele>2167</ele>
        <time>2011-07-30T11:35:50Z</time>
      </trkpt>
      <trkpt lat="42.56465" lon="1.97646">
        <ele>2167</ele>
        <time>2011-07-30T11:35:59Z</time>
      </trkpt>
      <trkpt lat="42.56472" lon="1.97637">
        <ele>2167</ele>
        <time>2011-07-30T11:36:09Z</time>
      </trkpt>
      <trkpt lat="42.56478" lon="1.97628">
        <ele>2167</ele>
        <time>2011-07-30T11:36:26Z</time>
      </trkpt>
      <trkpt lat="42.56486" lon="1.97618">
        <ele>2167</ele>
        <time>2011-07-30T11:36:36Z</time>
      </trkpt>
      <trkpt lat="42.56488" lon="1.97605">
        <ele>2167</ele>
        <time>2011-07-30T11:36:49Z</time>
      </trkpt>
      <trkpt lat="42.56486" lon="1.97593">
        <ele>2167</ele>
        <time>2011-07-30T11:36:57Z</time>
      </trkpt>
      <trkpt lat="42.56489" lon="1.97581">
        <ele>2167</ele>
        <time>2011-07-30T11:37:07Z</time>
      </trkpt>
      <trkpt lat="42.56496" lon="1.97572">
        <ele>2167</ele>
        <time>2011-07-30T11:37:20Z</time>
      </trkpt>
      <trkpt lat="42.56502" lon="1.97562">
        <ele>2172</ele>
        <time>2011-07-30T11:37:32Z</time>
      </trkpt>
      <trkpt lat="42.56511" lon="1.97556">
        <ele>2172</ele>
        <time>2011-07-30T11:37:40Z</time>
      </trkpt>
      <trkpt lat="42.56518" lon="1.97546">
        <ele>2172</ele>
        <time>2011-07-30T11:38:01Z</time>
      </trkpt>
      <trkpt lat="42.56522" lon="1.97533">
        <ele>2172</ele>
        <time>2011-07-30T11:38:13Z</time>
      </trkpt>
      <trkpt lat="42.56524" lon="1.97521">
        <ele>2172</ele>
        <time>2011-07-30T11:38:41Z</time>
      </trkpt>
      <trkpt lat="42.56531" lon="1.97514">
        <ele>2172</ele>
        <time>2011-07-30T11:38:48Z</time>
      </trkpt>
      <trkpt lat="42.56532" lon="1.97501">
        <ele>2172</ele>
        <time>2011-07-30T11:38:58Z</time>
      </trkpt>
      <trkpt lat="42.56532" lon="1.97488">
        <ele>2172</ele>
        <time>2011-07-30T11:39:07Z</time>
      </trkpt>
      <trkpt lat="42.56527" lon="1.97478">
        <ele>2172</ele>
        <time>2011-07-30T11:39:18Z</time>
      </trkpt>
      <trkpt lat="42.56519" lon="1.97473">
        <ele>2172</ele>
        <time>2011-07-30T11:39:28Z</time>
      </trkpt>
      <trkpt lat="42.56511" lon="1.97467">
        <ele>2172</ele>
        <time>2011-07-30T11:39:43Z</time>
      </trkpt>
      <trkpt lat="42.56511" lon="1.97454">
        <ele>2179</ele>
        <time>2011-07-30T11:40:00Z</time>
      </trkpt>
      <trkpt lat="42.56512" lon="1.97441">
        <ele>2179</ele>
        <time>2011-07-30T11:40:58Z</time>
      </trkpt>
      <trkpt lat="42.5652" lon="1.97434">
        <ele>2184</ele>
        <time>2011-07-30T11:41:07Z</time>
      </trkpt>
      <trkpt lat="42.5653" lon="1.97431">
        <ele>2184</ele>
        <time>2011-07-30T11:41:18Z</time>
      </trkpt>
      <trkpt lat="42.56539" lon="1.97428">
        <ele>2184</ele>
        <time>2011-07-30T11:41:26Z</time>
      </trkpt>
      <trkpt lat="42.56548" lon="1.97425">
        <ele>2184</ele>
        <time>2011-07-30T11:41:33Z</time>
      </trkpt>
      <trkpt lat="42.56557" lon="1.97421">
        <ele>2184</ele>
        <time>2011-07-30T11:41:43Z</time>
      </trkpt>
      <trkpt lat="42.56567" lon="1.97418">
        <ele>2184</ele>
        <time>2011-07-30T11:41:49Z</time>
      </trkpt>
      <trkpt lat="42.56577" lon="1.97414">
        <ele>2184</ele>
        <time>2011-07-30T11:41:57Z</time>
      </trkpt>
      <trkpt lat="42.56585" lon="1.97407">
        <ele>2184</ele>
        <time>2011-07-30T11:42:05Z</time>
      </trkpt>
      <trkpt lat="42.56591" lon="1.97398">
        <ele>2184</ele>
        <time>2011-07-30T11:42:40Z</time>
      </trkpt>
      <trkpt lat="42.56599" lon="1.97391">
        <ele>2184</ele>
        <time>2011-07-30T11:42:46Z</time>
      </trkpt>
      <trkpt lat="42.56609" lon="1.97388">
        <ele>2184</ele>
        <time>2011-07-30T11:42:54Z</time>
      </trkpt>
      <trkpt lat="42.56618" lon="1.97385">
        <ele>2184</ele>
        <time>2011-07-30T11:43:00Z</time>
      </trkpt>
      <trkpt lat="42.56628" lon="1.97379">
        <ele>2184</ele>
        <time>2011-07-30T11:43:08Z</time>
      </trkpt>
      <trkpt lat="42.56636" lon="1.97372">
        <ele>2184</ele>
        <time>2011-07-30T11:43:16Z</time>
      </trkpt>
      <trkpt lat="42.56646" lon="1.97368">
        <ele>2190</ele>
        <time>2011-07-30T11:43:23Z</time>
      </trkpt>
      <trkpt lat="42.56655" lon="1.97363">
        <ele>2190</ele>
        <time>2011-07-30T11:43:31Z</time>
      </trkpt>
      <trkpt lat="42.56664" lon="1.97358">
        <ele>2190</ele>
        <time>2011-07-30T11:43:39Z</time>
      </trkpt>
      <trkpt lat="42.56673" lon="1.97357">
        <ele>2190</ele>
        <time>2011-07-30T11:43:47Z</time>
      </trkpt>
      <trkpt lat="42.56683" lon="1.97355">
        <ele>2190</ele>
        <time>2011-07-30T11:43:55Z</time>
      </trkpt>
      <trkpt lat="42.56691" lon="1.97351">
        <ele>2190</ele>
        <time>2011-07-30T11:44:04Z</time>
      </trkpt>
      <trkpt lat="42.567" lon="1.97346">
        <ele>2190</ele>
        <time>2011-07-30T11:44:12Z</time>
      </trkpt>
      <trkpt lat="42.56709" lon="1.9735">
        <ele>2190</ele>
        <time>2011-07-30T11:44:21Z</time>
      </trkpt>
      <trkpt lat="42.56718" lon="1.97349">
        <ele>2196</ele>
        <time>2011-07-30T11:44:30Z</time>
      </trkpt>
      <trkpt lat="42.56726" lon="1.97342">
        <ele>2196</ele>
        <time>2011-07-30T11:44:38Z</time>
      </trkpt>
      <trkpt lat="42.56732" lon="1.97332">
        <ele>2196</ele>
        <time>2011-07-30T11:44:45Z</time>
      </trkpt>
      <trkpt lat="42.56735" lon="1.97319">
        <ele>2196</ele>
        <time>2011-07-30T11:44:55Z</time>
      </trkpt>
      <trkpt lat="42.56742" lon="1.9731">
        <ele>2202</ele>
        <time>2011-07-30T11:45:05Z</time>
      </trkpt>
      <trkpt lat="42.56749" lon="1.97302">
        <ele>2202</ele>
        <time>2011-07-30T11:45:12Z</time>
      </trkpt>
      <trkpt lat="42.56757" lon="1.97296">
        <ele>2202</ele>
        <time>2011-07-30T11:45:20Z</time>
      </trkpt>
      <trkpt lat="42.56766" lon="1.9729">
        <ele>2202</ele>
        <time>2011-07-30T11:45:29Z</time>
      </trkpt>
      <trkpt lat="42.56774" lon="1.97283">
        <ele>2207</ele>
        <time>2011-07-30T11:45:37Z</time>
      </trkpt>
      <trkpt lat="42.56782" lon="1.97276">
        <ele>2207</ele>
        <time>2011-07-30T11:45:44Z</time>
      </trkpt>
      <trkpt lat="42.5679" lon="1.97267">
        <ele>2207</ele>
        <time>2011-07-30T11:45:51Z</time>
      </trkpt>
      <trkpt lat="42.56798" lon="1.97261">
        <ele>2207</ele>
        <time>2011-07-30T11:45:59Z</time>
      </trkpt>
      <trkpt lat="42.56806" lon="1.97254">
        <ele>2207</ele>
        <time>2011-07-30T11:46:07Z</time>
      </trkpt>
      <trkpt lat="42.56798" lon="1.97249">
        <ele>2201</ele>
        <time>2011-07-30T11:46:36Z</time>
      </trkpt>
      <trkpt lat="42.56805" lon="1.97242">
        <ele>2201</ele>
        <time>2011-07-30T11:47:34Z</time>
      </trkpt>
      <trkpt lat="42.56812" lon="1.97234">
        <ele>2208</ele>
        <time>2011-07-30T11:47:42Z</time>
      </trkpt>
      <trkpt lat="42.56822" lon="1.97231">
        <ele>2208</ele>
        <time>2011-07-30T11:47:51Z</time>
      </trkpt>
      <trkpt lat="42.5683" lon="1.97223">
        <ele>2208</ele>
        <time>2011-07-30T11:48:00Z</time>
      </trkpt>
      <trkpt lat="42.56838" lon="1.97217">
        <ele>2214</ele>
        <time>2011-07-30T11:48:09Z</time>
      </trkpt>
      <trkpt lat="42.56846" lon="1.97208">
        <ele>2214</ele>
        <time>2011-07-30T11:48:20Z</time>
      </trkpt>
      <trkpt lat="42.56851" lon="1.97198">
        <ele>2214</ele>
        <time>2011-07-30T11:48:30Z</time>
      </trkpt>
      <trkpt lat="42.5686" lon="1.97193">
        <ele>2214</ele>
        <time>2011-07-30T11:48:45Z</time>
      </trkpt>
      <trkpt lat="42.56869" lon="1.97188">
        <ele>2214</ele>
        <time>2011-07-30T11:48:53Z</time>
      </trkpt>
      <trkpt lat="42.56879" lon="1.97183">
        <ele>2220</ele>
        <time>2011-07-30T11:49:01Z</time>
      </trkpt>
      <trkpt lat="42.56887" lon="1.97178">
        <ele>2220</ele>
        <time>2011-07-30T11:49:07Z</time>
      </trkpt>
      <trkpt lat="42.56895" lon="1.97172">
        <ele>2226</ele>
        <time>2011-07-30T11:49:15Z</time>
      </trkpt>
      <trkpt lat="42.56904" lon="1.97166">
        <ele>2226</ele>
        <time>2011-07-30T11:49:24Z</time>
      </trkpt>
      <trkpt lat="42.56911" lon="1.97157">
        <ele>2226</ele>
        <time>2011-07-30T11:49:33Z</time>
      </trkpt>
      <trkpt lat="42.56919" lon="1.9715">
        <ele>2226</ele>
        <time>2011-07-30T11:49:42Z</time>
      </trkpt>
      <trkpt lat="42.56927" lon="1.97142">
        <ele>2231</ele>
        <time>2011-07-30T11:49:51Z</time>
      </trkpt>
      <trkpt lat="42.56934" lon="1.97134">
        <ele>2231</ele>
        <time>2011-07-30T11:50:03Z</time>
      </trkpt>
      <trkpt lat="42.56943" lon="1.9713">
        <ele>2231</ele>
        <time>2011-07-30T11:50:14Z</time>
      </trkpt>
      <trkpt lat="42.56952" lon="1.97125">
        <ele>2231</ele>
        <time>2011-07-30T11:50:24Z</time>
      </trkpt>
      <trkpt lat="42.5696" lon="1.9712">
        <ele>2231</ele>
        <time>2011-07-30T11:50:34Z</time>
      </trkpt>
      <trkpt lat="42.5697" lon="1.97116">
        <ele>2231</ele>
        <time>2011-07-30T11:50:59Z</time>
      </trkpt>
      <trkpt lat="42.56978" lon="1.9711">
        <ele>2231</ele>
        <time>2011-07-30T11:51:09Z</time>
      </trkpt>
      <trkpt lat="42.56987" lon="1.97107">
        <ele>2231</ele>
        <time>2011-07-30T11:51:19Z</time>
      </trkpt>
      <trkpt lat="42.56996" lon="1.97102">
        <ele>2237</ele>
        <time>2011-07-30T11:51:28Z</time>
      </trkpt>
      <trkpt lat="42.57005" lon="1.97099">
        <ele>2237</ele>
        <time>2011-07-30T11:51:36Z</time>
      </trkpt>
      <trkpt lat="42.57014" lon="1.97096">
        <ele>2237</ele>
        <time>2011-07-30T11:51:44Z</time>
      </trkpt>
      <trkpt lat="42.57023" lon="1.97093">
        <ele>2237</ele>
        <time>2011-07-30T11:51:52Z</time>
      </trkpt>
      <trkpt lat="42.57033" lon="1.97091">
        <ele>2237</ele>
        <time>2011-07-30T11:52:01Z</time>
      </trkpt>
      <trkpt lat="42.57043" lon="1.97089">
        <ele>2237</ele>
        <time>2011-07-30T11:52:11Z</time>
      </trkpt>
      <trkpt lat="42.57053" lon="1.97083">
        <ele>2237</ele>
        <time>2011-07-30T11:52:21Z</time>
      </trkpt>
      <trkpt lat="42.57063" lon="1.97081">
        <ele>2237</ele>
        <time>2011-07-30T11:52:29Z</time>
      </trkpt>
      <trkpt lat="42.57072" lon="1.97081">
        <ele>2237</ele>
        <time>2011-07-30T11:52:38Z</time>
      </trkpt>
      <trkpt lat="42.57081" lon="1.97078">
        <ele>2237</ele>
        <time>2011-07-30T11:52:46Z</time>
      </trkpt>
      <trkpt lat="42.57091" lon="1.97076">
        <ele>2243</ele>
        <time>2011-07-30T11:52:53Z</time>
      </trkpt>
      <trkpt lat="42.571" lon="1.97071">
        <ele>2243</ele>
        <time>2011-07-30T11:53:01Z</time>
      </trkpt>
      <trkpt lat="42.5711" lon="1.97068">
        <ele>2243</ele>
        <time>2011-07-30T11:53:08Z</time>
      </trkpt>
      <trkpt lat="42.57118" lon="1.97063">
        <ele>2243</ele>
        <time>2011-07-30T11:53:15Z</time>
      </trkpt>
      <trkpt lat="42.57127" lon="1.97059">
        <ele>2243</ele>
        <time>2011-07-30T11:53:23Z</time>
      </trkpt>
      <trkpt lat="42.57135" lon="1.97052">
        <ele>2243</ele>
        <time>2011-07-30T11:53:33Z</time>
      </trkpt>
      <trkpt lat="42.57144" lon="1.97047">
        <ele>2243</ele>
        <time>2011-07-30T11:53:41Z</time>
      </trkpt>
      <trkpt lat="42.57152" lon="1.9704">
        <ele>2243</ele>
        <time>2011-07-30T11:53:48Z</time>
      </trkpt>
      <trkpt lat="42.57158" lon="1.9703">
        <ele>2243</ele>
        <time>2011-07-30T11:53:58Z</time>
      </trkpt>
      <trkpt lat="42.57165" lon="1.97023">
        <ele>2243</ele>
        <time>2011-07-30T11:54:04Z</time>
      </trkpt>
      <trkpt lat="42.57174" lon="1.97016">
        <ele>2243</ele>
        <time>2011-07-30T11:54:11Z</time>
      </trkpt>
      <trkpt lat="42.5718" lon="1.97007">
        <ele>2249</ele>
        <time>2011-07-30T11:54:18Z</time>
      </trkpt>
      <trkpt lat="42.57187" lon="1.96997">
        <ele>2249</ele>
        <time>2011-07-30T11:54:27Z</time>
      </trkpt>
      <trkpt lat="42.57195" lon="1.96988">
        <ele>2249</ele>
        <time>2011-07-30T11:54:35Z</time>
      </trkpt>
      <trkpt lat="42.57202" lon="1.96981">
        <ele>2249</ele>
        <time>2011-07-30T11:54:45Z</time>
      </trkpt>
      <trkpt lat="42.57209" lon="1.96974">
        <ele>2249</ele>
        <time>2011-07-30T11:54:51Z</time>
      </trkpt>
      <trkpt lat="42.57218" lon="1.96967">
        <ele>2249</ele>
        <time>2011-07-30T11:54:58Z</time>
      </trkpt>
      <trkpt lat="42.57225" lon="1.96958">
        <ele>2249</ele>
        <time>2011-07-30T11:55:08Z</time>
      </trkpt>
      <trkpt lat="42.57225" lon="1.96946">
        <ele>2249</ele>
        <time>2011-07-30T11:55:15Z</time>
      </trkpt>
      <trkpt lat="42.57221" lon="1.96935">
        <ele>2241</ele>
        <time>2011-07-30T11:55:57Z</time>
      </trkpt>
      <trkpt lat="42.57228" lon="1.96944">
        <ele>2241</ele>
        <time>2011-07-30T11:56:56Z</time>
      </trkpt>
      <trkpt lat="42.57238" lon="1.96941">
        <ele>2241</ele>
        <time>2011-07-30T11:57:05Z</time>
      </trkpt>
      <trkpt lat="42.57246" lon="1.96935">
        <ele>2241</ele>
        <time>2011-07-30T11:57:12Z</time>
      </trkpt>
      <trkpt lat="42.57253" lon="1.96928">
        <ele>2241</ele>
        <time>2011-07-30T11:57:18Z</time>
      </trkpt>
      <trkpt lat="42.57259" lon="1.96917">
        <ele>2235</ele>
        <time>2011-07-30T11:57:27Z</time>
      </trkpt>
      <trkpt lat="42.57267" lon="1.96909">
        <ele>2235</ele>
        <time>2011-07-30T11:57:37Z</time>
      </trkpt>
      <trkpt lat="42.57274" lon="1.96902">
        <ele>2235</ele>
        <time>2011-07-30T11:57:46Z</time>
      </trkpt>
      <trkpt lat="42.57283" lon="1.96897">
        <ele>2235</ele>
        <time>2011-07-30T11:57:57Z</time>
      </trkpt>
      <trkpt lat="42.57292" lon="1.96895">
        <ele>2235</ele>
        <time>2011-07-30T11:58:08Z</time>
      </trkpt>
      <trkpt lat="42.573" lon="1.96887">
        <ele>2227</ele>
        <time>2011-07-30T11:58:18Z</time>
      </trkpt>
      <trkpt lat="42.57304" lon="1.96877">
        <ele>2227</ele>
        <time>2011-07-30T11:59:03Z</time>
      </trkpt>
      <trkpt lat="42.57296" lon="1.96871">
        <ele>2227</ele>
        <time>2011-07-30T11:59:27Z</time>
      </trkpt>
      <trkpt lat="42.57291" lon="1.96859">
        <ele>2227</ele>
        <time>2011-07-30T11:59:35Z</time>
      </trkpt>
      <trkpt lat="42.57284" lon="1.96851">
        <ele>2227</ele>
        <time>2011-07-30T11:59:45Z</time>
      </trkpt>
      <trkpt lat="42.57292" lon="1.96854">
        <ele>2227</ele>
        <time>2011-07-30T12:00:07Z</time>
      </trkpt>
      <trkpt lat="42.57296" lon="1.96867">
        <ele>2227</ele>
        <time>2011-07-30T12:00:18Z</time>
      </trkpt>
      <trkpt lat="42.57303" lon="1.96876">
        <ele>2227</ele>
        <time>2011-07-30T12:00:26Z</time>
      </trkpt>
      <trkpt lat="42.57307" lon="1.96864">
        <ele>2227</ele>
        <time>2011-07-30T12:00:37Z</time>
      </trkpt>
      <trkpt lat="42.5731" lon="1.96852">
        <ele>2227</ele>
        <time>2011-07-30T12:00:45Z</time>
      </trkpt>
      <trkpt lat="42.57311" lon="1.9684">
        <ele>2227</ele>
        <time>2011-07-30T12:00:58Z</time>
      </trkpt>
      <trkpt lat="42.5731" lon="1.96827">
        <ele>2227</ele>
        <time>2011-07-30T12:01:07Z</time>
      </trkpt>
      <trkpt lat="42.57315" lon="1.96816">
        <ele>2227</ele>
        <time>2011-07-30T12:01:19Z</time>
      </trkpt>
      <trkpt lat="42.57307" lon="1.96808">
        <ele>2227</ele>
        <time>2011-07-30T12:01:34Z</time>
      </trkpt>
      <trkpt lat="42.57312" lon="1.96798">
        <ele>2227</ele>
        <time>2011-07-30T12:01:47Z</time>
      </trkpt>
      <trkpt lat="42.57318" lon="1.96787">
        <ele>2227</ele>
        <time>2011-07-30T12:01:56Z</time>
      </trkpt>
      <trkpt lat="42.5732" lon="1.96774">
        <ele>2227</ele>
        <time>2011-07-30T12:02:05Z</time>
      </trkpt>
      <trkpt lat="42.57322" lon="1.96762">
        <ele>2227</ele>
        <time>2011-07-30T12:02:14Z</time>
      </trkpt>
      <trkpt lat="42.5732" lon="1.96749">
        <ele>2227</ele>
        <time>2011-07-30T12:02:35Z</time>
      </trkpt>
      <trkpt lat="42.57322" lon="1.96736">
        <ele>2227</ele>
        <time>2011-07-30T12:02:45Z</time>
      </trkpt>
      <trkpt lat="42.57318" lon="1.96725">
        <ele>2227</ele>
        <time>2011-07-30T12:02:55Z</time>
      </trkpt>
      <trkpt lat="42.57323" lon="1.96714">
        <ele>2233</ele>
        <time>2011-07-30T12:03:07Z</time>
      </trkpt>
      <trkpt lat="42.5732" lon="1.96702">
        <ele>2233</ele>
        <time>2011-07-30T12:03:16Z</time>
      </trkpt>
      <trkpt lat="42.57315" lon="1.96692">
        <ele>2233</ele>
        <time>2011-07-30T12:03:23Z</time>
      </trkpt>
      <trkpt lat="42.57312" lon="1.9668">
        <ele>2233</ele>
        <time>2011-07-30T12:03:31Z</time>
      </trkpt>
      <trkpt lat="42.57306" lon="1.9667">
        <ele>2233</ele>
        <time>2011-07-30T12:03:42Z</time>
      </trkpt>
      <trkpt lat="42.57298" lon="1.9666">
        <ele>2233</ele>
        <time>2011-07-30T12:03:54Z</time>
      </trkpt>
      <trkpt lat="42.57292" lon="1.96651">
        <ele>2233</ele>
        <time>2011-07-30T12:04:03Z</time>
      </trkpt>
      <trkpt lat="42.57289" lon="1.96639">
        <ele>2233</ele>
        <time>2011-07-30T12:04:13Z</time>
      </trkpt>
      <trkpt lat="42.57281" lon="1.96632">
        <ele>2242</ele>
        <time>2011-07-30T12:04:25Z</time>
      </trkpt>
      <trkpt lat="42.57272" lon="1.96627">
        <ele>2242</ele>
        <time>2011-07-30T12:04:35Z</time>
      </trkpt>
      <trkpt lat="42.57267" lon="1.96616">
        <ele>2249</ele>
        <time>2011-07-30T12:04:52Z</time>
      </trkpt>
      <trkpt lat="42.57272" lon="1.96605">
        <ele>2249</ele>
        <time>2011-07-30T12:05:05Z</time>
      </trkpt>
      <trkpt lat="42.57274" lon="1.96592">
        <ele>2249</ele>
        <time>2011-07-30T12:05:17Z</time>
      </trkpt>
      <trkpt lat="42.57276" lon="1.96579">
        <ele>2249</ele>
        <time>2011-07-30T12:06:41Z</time>
      </trkpt>
      <trkpt lat="42.57276" lon="1.96567">
        <ele>2249</ele>
        <time>2011-07-30T12:06:50Z</time>
      </trkpt>
      <trkpt lat="42.57276" lon="1.96554">
        <ele>2256</ele>
        <time>2011-07-30T12:07:06Z</time>
      </trkpt>
      <trkpt lat="42.57269" lon="1.96544">
        <ele>2256</ele>
        <time>2011-07-30T12:07:14Z</time>
      </trkpt>
      <trkpt lat="42.57263" lon="1.96533">
        <ele>2256</ele>
        <time>2011-07-30T12:07:22Z</time>
      </trkpt>
      <trkpt lat="42.57256" lon="1.96524">
        <ele>2263</ele>
        <time>2011-07-30T12:07:30Z</time>
      </trkpt>
      <trkpt lat="42.57254" lon="1.96511">
        <ele>2263</ele>
        <time>2011-07-30T12:07:40Z</time>
      </trkpt>
      <trkpt lat="42.57257" lon="1.96498">
        <ele>2263</ele>
        <time>2011-07-30T12:07:56Z</time>
      </trkpt>
      <trkpt lat="42.57259" lon="1.96486">
        <ele>2263</ele>
        <time>2011-07-30T12:08:06Z</time>
      </trkpt>
      <trkpt lat="42.57258" lon="1.96473">
        <ele>2263</ele>
        <time>2011-07-30T12:08:14Z</time>
      </trkpt>
      <trkpt lat="42.57253" lon="1.96463">
        <ele>2263</ele>
        <time>2011-07-30T12:08:25Z</time>
      </trkpt>
      <trkpt lat="42.57253" lon="1.96451">
        <ele>2271</ele>
        <time>2011-07-30T12:08:39Z</time>
      </trkpt>
      <trkpt lat="42.57248" lon="1.96439">
        <ele>2271</ele>
        <time>2011-07-30T12:08:50Z</time>
      </trkpt>
      <trkpt lat="42.57247" lon="1.96427">
        <ele>2277</ele>
        <time>2011-07-30T12:09:23Z</time>
      </trkpt>
      <trkpt lat="42.57241" lon="1.96416">
        <ele>2277</ele>
        <time>2011-07-30T12:09:39Z</time>
      </trkpt>
      <trkpt lat="42.57241" lon="1.96403">
        <ele>2277</ele>
        <time>2011-07-30T12:09:48Z</time>
      </trkpt>
      <trkpt lat="42.57238" lon="1.96392">
        <ele>2277</ele>
        <time>2011-07-30T12:09:57Z</time>
      </trkpt>
      <trkpt lat="42.57235" lon="1.96378">
        <ele>2283</ele>
        <time>2011-07-30T12:10:10Z</time>
      </trkpt>
      <trkpt lat="42.57239" lon="1.96365">
        <ele>2283</ele>
        <time>2011-07-30T12:10:18Z</time>
      </trkpt>
      <trkpt lat="42.57237" lon="1.96352">
        <ele>2283</ele>
        <time>2011-07-30T12:10:25Z</time>
      </trkpt>
      <trkpt lat="42.57236" lon="1.96339">
        <ele>2283</ele>
        <time>2011-07-30T12:10:35Z</time>
      </trkpt>
      <trkpt lat="42.57237" lon="1.96327">
        <ele>2283</ele>
        <time>2011-07-30T12:10:43Z</time>
      </trkpt>
      <trkpt lat="42.57233" lon="1.96314">
        <ele>2283</ele>
        <time>2011-07-30T12:10:52Z</time>
      </trkpt>
      <trkpt lat="42.57227" lon="1.96305">
        <ele>2283</ele>
        <time>2011-07-30T12:10:59Z</time>
      </trkpt>
      <trkpt lat="42.57223" lon="1.96294">
        <ele>2283</ele>
        <time>2011-07-30T12:11:13Z</time>
      </trkpt>
      <trkpt lat="42.57221" lon="1.96281">
        <ele>2283</ele>
        <time>2011-07-30T12:11:24Z</time>
      </trkpt>
      <trkpt lat="42.57221" lon="1.96268">
        <ele>2283</ele>
        <time>2011-07-30T12:11:46Z</time>
      </trkpt>
      <trkpt lat="42.57223" lon="1.96256">
        <ele>2283</ele>
        <time>2011-07-30T12:11:56Z</time>
      </trkpt>
      <trkpt lat="42.57221" lon="1.96244">
        <ele>2283</ele>
        <time>2011-07-30T12:12:08Z</time>
      </trkpt>
      <trkpt lat="42.57215" lon="1.96233">
        <ele>2283</ele>
        <time>2011-07-30T12:12:18Z</time>
      </trkpt>
      <trkpt lat="42.57211" lon="1.96221">
        <ele>2283</ele>
        <time>2011-07-30T12:12:27Z</time>
      </trkpt>
      <trkpt lat="42.5721" lon="1.96208">
        <ele>2283</ele>
        <time>2011-07-30T12:12:36Z</time>
      </trkpt>
      <trkpt lat="42.57204" lon="1.96198">
        <ele>2289</ele>
        <time>2011-07-30T12:12:47Z</time>
      </trkpt>
      <trkpt lat="42.57203" lon="1.96185">
        <ele>2289</ele>
        <time>2011-07-30T12:12:59Z</time>
      </trkpt>
      <trkpt lat="42.57207" lon="1.96173">
        <ele>2289</ele>
        <time>2011-07-30T12:13:10Z</time>
      </trkpt>
      <trkpt lat="42.57208" lon="1.96161">
        <ele>2289</ele>
        <time>2011-07-30T12:13:22Z</time>
      </trkpt>
      <trkpt lat="42.57211" lon="1.96148">
        <ele>2289</ele>
        <time>2011-07-30T12:14:34Z</time>
      </trkpt>
      <trkpt lat="42.57212" lon="1.96136">
        <ele>2295</ele>
        <time>2011-07-30T12:14:47Z</time>
      </trkpt>
      <trkpt lat="42.57216" lon="1.96124">
        <ele>2295</ele>
        <time>2011-07-30T12:15:03Z</time>
      </trkpt>
      <trkpt lat="42.57219" lon="1.96112">
        <ele>2295</ele>
        <time>2011-07-30T12:15:13Z</time>
      </trkpt>
      <trkpt lat="42.5722" lon="1.961">
        <ele>2301</ele>
        <time>2011-07-30T12:15:29Z</time>
      </trkpt>
      <trkpt lat="42.57215" lon="1.9609">
        <ele>2301</ele>
        <time>2011-07-30T12:16:34Z</time>
      </trkpt>
      <trkpt lat="42.57217" lon="1.96078">
        <ele>2308</ele>
        <time>2011-07-30T12:16:44Z</time>
      </trkpt>
      <trkpt lat="42.57216" lon="1.96065">
        <ele>2308</ele>
        <time>2011-07-30T12:16:53Z</time>
      </trkpt>
      <trkpt lat="42.57214" lon="1.96053">
        <ele>2313</ele>
        <time>2011-07-30T12:17:02Z</time>
      </trkpt>
      <trkpt lat="42.57219" lon="1.96042">
        <ele>2313</ele>
        <time>2011-07-30T12:17:14Z</time>
      </trkpt>
      <trkpt lat="42.57223" lon="1.9603">
        <ele>2319</ele>
        <time>2011-07-30T12:17:26Z</time>
      </trkpt>
      <trkpt lat="42.57227" lon="1.96019">
        <ele>2319</ele>
        <time>2011-07-30T12:17:35Z</time>
      </trkpt>
      <trkpt lat="42.57233" lon="1.96007">
        <ele>2319</ele>
        <time>2011-07-30T12:17:47Z</time>
      </trkpt>
      <trkpt lat="42.5719" lon="1.95714">
        <ele>2359</ele>
        <time>2011-07-30T12:17:47</time>
      </trkpt>
      <trkpt lat="42.57181" lon="1.95709">
        <ele>2359</ele>
        <time>2011-07-30T12:21:24</time>
      </trkpt>
      <trkpt lat="42.57174" lon="1.95699">
        <ele>2359</ele>
        <time>2011-07-30T12:21:35</time>
      </trkpt>
      <trkpt lat="42.57168" lon="1.95688">
        <ele>2359</ele>
        <time>2011-07-30T12:23:38</time>
      </trkpt>
      <trkpt lat="42.57158" lon="1.95685">
        <ele>2351</ele>
        <time>2011-07-30T12:23:51</time>
      </trkpt>
      <trkpt lat="42.57154" lon="1.95673">
        <ele>2351</ele>
        <time>2011-07-30T12:24:00</time>
      </trkpt>
      <trkpt lat="42.57152" lon="1.95659">
        <ele>2351</ele>
        <time>2011-07-30T12:24:10</time>
      </trkpt>
      <trkpt lat="42.57151" lon="1.95645">
        <ele>2351</ele>
        <time>2011-07-30T12:24:20</time>
      </trkpt>
      <trkpt lat="42.57147" lon="1.95632">
        <ele>2351</ele>
        <time>2011-07-30T12:24:28</time>
      </trkpt>
      <trkpt lat="42.57145" lon="1.95619">
        <ele>2351</ele>
        <time>2011-07-30T12:24:38</time>
      </trkpt>
      <trkpt lat="42.57146" lon="1.95606">
        <ele>2351</ele>
        <time>2011-07-30T12:24:49</time>
      </trkpt>
      <trkpt lat="42.57146" lon="1.95592">
        <ele>2360</ele>
        <time>2011-07-30T12:25:01</time>
      </trkpt>
      <trkpt lat="42.57151" lon="1.95579">
        <ele>2360</ele>
        <time>2011-07-30T12:25:10</time>
      </trkpt>
      <trkpt lat="42.57153" lon="1.95563">
        <ele>2360</ele>
        <time>2011-07-30T12:25:19</time>
      </trkpt>
      <trkpt lat="42.57151" lon="1.9555">
        <ele>2360</ele>
        <time>2011-07-30T12:25:31</time>
      </trkpt>
      <trkpt lat="42.57156" lon="1.95538">
        <ele>2360</ele>
        <time>2011-07-30T12:25:41</time>
      </trkpt>
      <trkpt lat="42.57157" lon="1.95524">
        <ele>2360</ele>
        <time>2011-07-30T12:25:49</time>
      </trkpt>
      <trkpt lat="42.5716" lon="1.95511">
        <ele>2360</ele>
        <time>2011-07-30T12:25:59</time>
      </trkpt>
      <trkpt lat="42.57159" lon="1.95498">
        <ele>2360</ele>
        <time>2011-07-30T12:26:07</time>
      </trkpt>
      <trkpt lat="42.5716" lon="1.95484">
        <ele>2360</ele>
        <time>2011-07-30T12:26:17</time>
      </trkpt>
      <trkpt lat="42.57161" lon="1.9547">
        <ele>2360</ele>
        <time>2011-07-30T12:26:27</time>
      </trkpt>
      <trkpt lat="42.57161" lon="1.95455">
        <ele>2360</ele>
        <time>2011-07-30T12:26:36</time>
      </trkpt>
      <trkpt lat="42.57164" lon="1.95443">
        <ele>2360</ele>
        <time>2011-07-30T12:26:43</time>
      </trkpt>
      <trkpt lat="42.57163" lon="1.95429">
        <ele>2360</ele>
        <time>2011-07-30T12:26:54</time>
      </trkpt>
      <trkpt lat="42.57166" lon="1.95417">
        <ele>2360</ele>
        <time>2011-07-30T12:27:03</time>
      </trkpt>
      <trkpt lat="42.57168" lon="1.95402">
        <ele>2368</ele>
        <time>2011-07-30T12:27:12</time>
      </trkpt>
      <trkpt lat="42.57166" lon="1.95388">
        <ele>2368</ele>
        <time>2011-07-30T12:27:24</time>
      </trkpt>
      <trkpt lat="42.57166" lon="1.95375">
        <ele>2368</ele>
        <time>2011-07-30T12:27:32</time>
      </trkpt>
      <trkpt lat="42.57167" lon="1.9536">
        <ele>2368</ele>
        <time>2011-07-30T12:27:42</time>
      </trkpt>
      <trkpt lat="42.57167" lon="1.95346">
        <ele>2361</ele>
        <time>2011-07-30T12:27:51</time>
      </trkpt>
      <trkpt lat="42.57165" lon="1.95332">
        <ele>2361</ele>
        <time>2011-07-30T12:28:00</time>
      </trkpt>
      <trkpt lat="42.57167" lon="1.95318">
        <ele>2361</ele>
        <time>2011-07-30T12:28:09</time>
      </trkpt>
      <trkpt lat="42.57166" lon="1.95304">
        <ele>2361</ele>
        <time>2011-07-30T12:28:17</time>
      </trkpt>
      <trkpt lat="42.57165" lon="1.9529">
        <ele>2361</ele>
        <time>2011-07-30T12:28:26</time>
      </trkpt>
      <trkpt lat="42.57166" lon="1.95276">
        <ele>2361</ele>
        <time>2011-07-30T12:28:35</time>
      </trkpt>
      <trkpt lat="42.57166" lon="1.95262">
        <ele>2361</ele>
        <time>2011-07-30T12:28:43</time>
      </trkpt>
      <trkpt lat="42.57166" lon="1.95277">
        <ele>2368</ele>
        <time>2011-07-30T12:31:15</time>
      </trkpt>
      <trkpt lat="42.57168" lon="1.95289">
        <ele>2368</ele>
        <time>2011-07-30T12:31:23</time>
      </trkpt>
      <trkpt lat="42.57172" lon="1.95302">
        <ele>2368</ele>
        <time>2011-07-30T12:31:32</time>
      </trkpt>
      <trkpt lat="42.57174" lon="1.95318">
        <ele>2368</ele>
        <time>2011-07-30T12:31:40</time>
      </trkpt>
      <trkpt lat="42.57176" lon="1.95332">
        <ele>2368</ele>
        <time>2011-07-30T12:31:49</time>
      </trkpt>
      <trkpt lat="42.57179" lon="1.95346">
        <ele>2368</ele>
        <time>2011-07-30T12:31:58</time>
      </trkpt>
      <trkpt lat="42.57181" lon="1.95359">
        <ele>2368</ele>
        <time>2011-07-30T12:32:07</time>
      </trkpt>
      <trkpt lat="42.57182" lon="1.95374">
        <ele>2368</ele>
        <time>2011-07-30T12:32:16</time>
      </trkpt>
      <trkpt lat="42.57186" lon="1.95386">
        <ele>2360</ele>
        <time>2011-07-30T12:32:28</time>
      </trkpt>
      <trkpt lat="42.57188" lon="1.954">
        <ele>2360</ele>
        <time>2011-07-30T12:32:37</time>
      </trkpt>
      <trkpt lat="42.57193" lon="1.95411">
        <ele>2360</ele>
        <time>2011-07-30T12:32:48</time>
      </trkpt>
      <trkpt lat="42.57194" lon="1.95426">
        <ele>2360</ele>
        <time>2011-07-30T12:32:59</time>
      </trkpt>
      <trkpt lat="42.57197" lon="1.95438">
        <ele>2353</ele>
        <time>2011-07-30T12:33:07</time>
      </trkpt>
      <trkpt lat="42.57203" lon="1.95449">
        <ele>2353</ele>
        <time>2011-07-30T12:33:15</time>
      </trkpt>
      <trkpt lat="42.5721" lon="1.9546">
        <ele>2353</ele>
        <time>2011-07-30T12:33:28</time>
      </trkpt>
      <trkpt lat="42.57212" lon="1.95473">
        <ele>2353</ele>
        <time>2011-07-30T12:33:37</time>
      </trkpt>
      <trkpt lat="42.57217" lon="1.95486">
        <ele>2348</ele>
        <time>2011-07-30T12:33:45</time>
      </trkpt>
      <trkpt lat="42.57223" lon="1.95497">
        <ele>2348</ele>
        <time>2011-07-30T12:33:52</time>
      </trkpt>
      <trkpt lat="42.57231" lon="1.95507">
        <ele>2348</ele>
        <time>2011-07-30T12:34:01</time>
      </trkpt>
      <trkpt lat="42.57239" lon="1.95514">
        <ele>2348</ele>
        <time>2011-07-30T12:34:10</time>
      </trkpt>
      <trkpt lat="42.57247" lon="1.95522">
        <ele>2348</ele>
        <time>2011-07-30T12:34:24</time>
      </trkpt>
      <trkpt lat="42.57255" lon="1.95532">
        <ele>2340</ele>
        <time>2011-07-30T12:34:35</time>
      </trkpt>
      <trkpt lat="42.57263" lon="1.95541">
        <ele>2340</ele>
        <time>2011-07-30T12:34:44</time>
      </trkpt>
      <trkpt lat="42.57269" lon="1.95552">
        <ele>2340</ele>
        <time>2011-07-30T12:34:54</time>
      </trkpt>
      <trkpt lat="42.57278" lon="1.9556">
        <ele>2340</ele>
        <time>2011-07-30T12:35:03</time>
      </trkpt>
      <trkpt lat="42.57285" lon="1.9557">
        <ele>2340</ele>
        <time>2011-07-30T12:35:09</time>
      </trkpt>
      <trkpt lat="42.57291" lon="1.95582">
        <ele>2340</ele>
        <time>2011-07-30T12:35:21</time>
      </trkpt>
      <trkpt lat="42.57297" lon="1.95594">
        <ele>2340</ele>
        <time>2011-07-30T12:35:31</time>
      </trkpt>
      <trkpt lat="42.57306" lon="1.95599">
        <ele>2340</ele>
        <time>2011-07-30T12:35:40</time>
      </trkpt>
      <trkpt lat="42.57317" lon="1.956">
        <ele>2340</ele>
        <time>2011-07-30T12:35:51</time>
      </trkpt>
      <trkpt lat="42.57326" lon="1.95606">
        <ele>2335</ele>
        <time>2011-07-30T12:35:58</time>
      </trkpt>
      <trkpt lat="42.57334" lon="1.95614">
        <ele>2335</ele>
        <time>2011-07-30T12:36:04</time>
      </trkpt>
      <trkpt lat="42.57342" lon="1.95623">
        <ele>2335</ele>
        <time>2011-07-30T12:36:13</time>
      </trkpt>
      <trkpt lat="42.57351" lon="1.95625">
        <ele>2335</ele>
        <time>2011-07-30T12:36:20</time>
      </trkpt>
      <trkpt lat="42.57362" lon="1.95623">
        <ele>2335</ele>
        <time>2011-07-30T12:36:29</time>
      </trkpt>
      <trkpt lat="42.57372" lon="1.95627">
        <ele>2335</ele>
        <time>2011-07-30T12:36:39</time>
      </trkpt>
      <trkpt lat="42.5738" lon="1.95635">
        <ele>2335</ele>
        <time>2011-07-30T12:36:46</time>
      </trkpt>
      <trkpt lat="42.5739" lon="1.95639">
        <ele>2335</ele>
        <time>2011-07-30T12:36:54</time>
      </trkpt>
      <trkpt lat="42.57399" lon="1.95645">
        <ele>2335</ele>
        <time>2011-07-30T12:37:05</time>
      </trkpt>
      <trkpt lat="42.57408" lon="1.95653">
        <ele>2341</ele>
        <time>2011-07-30T12:37:14</time>
      </trkpt>
      <trkpt lat="42.57417" lon="1.95659">
        <ele>2341</ele>
        <time>2011-07-30T12:37:23</time>
      </trkpt>
      <trkpt lat="42.57427" lon="1.95665">
        <ele>2341</ele>
        <time>2011-07-30T12:37:31</time>
      </trkpt>
      <trkpt lat="42.57434" lon="1.95675">
        <ele>2341</ele>
        <time>2011-07-30T12:37:38</time>
      </trkpt>
      <trkpt lat="42.57443" lon="1.95682">
        <ele>2341</ele>
        <time>2011-07-30T12:37:47</time>
      </trkpt>
      <trkpt lat="42.57451" lon="1.95692">
        <ele>2341</ele>
        <time>2011-07-30T12:37:56</time>
      </trkpt>
      <trkpt lat="42.57459" lon="1.957">
        <ele>2341</ele>
        <time>2011-07-30T12:38:04</time>
      </trkpt>
      <trkpt lat="42.57466" lon="1.9571">
        <ele>2341</ele>
        <time>2011-07-30T12:38:13</time>
      </trkpt>
      <trkpt lat="42.57475" lon="1.95718">
        <ele>2331</ele>
        <time>2011-07-30T12:38:24</time>
      </trkpt>
      <trkpt lat="42.5748" lon="1.95729">
        <ele>2331</ele>
        <time>2011-07-30T12:38:32</time>
      </trkpt>
      <trkpt lat="42.57488" lon="1.95738">
        <ele>2331</ele>
        <time>2011-07-30T12:38:40</time>
      </trkpt>
      <trkpt lat="42.57494" lon="1.95748">
        <ele>2331</ele>
        <time>2011-07-30T12:38:48</time>
      </trkpt>
      <trkpt lat="42.57498" lon="1.95761">
        <ele>2331</ele>
        <time>2011-07-30T12:38:57</time>
      </trkpt>
      <trkpt lat="42.57501" lon="1.95773">
        <ele>2331</ele>
        <time>2011-07-30T12:39:04</time>
      </trkpt>
      <trkpt lat="42.57506" lon="1.95787">
        <ele>2331</ele>
        <time>2011-07-30T12:39:13</time>
      </trkpt>
      <trkpt lat="42.57511" lon="1.958">
        <ele>2331</ele>
        <time>2011-07-30T12:39:22</time>
      </trkpt>
      <trkpt lat="42.57512" lon="1.95814">
        <ele>2331</ele>
        <time>2011-07-30T12:39:34</time>
      </trkpt>
      <trkpt lat="42.57515" lon="1.95826">
        <ele>2331</ele>
        <time>2011-07-30T12:39:42</time>
      </trkpt>
      <trkpt lat="42.57515" lon="1.9584">
        <ele>2341</ele>
        <time>2011-07-30T12:40:18</time>
      </trkpt>
      <trkpt lat="42.57515" lon="1.95853">
        <ele>2341</ele>
        <time>2011-07-30T12:40:27</time>
      </trkpt>
      <trkpt lat="42.57514" lon="1.95867">
        <ele>2341</ele>
        <time>2011-07-30T12:40:37</time>
      </trkpt>
      <trkpt lat="42.57519" lon="1.95879">
        <ele>2335</ele>
        <time>2011-07-30T12:40:44</time>
      </trkpt>
      <trkpt lat="42.57523" lon="1.95892">
        <ele>2335</ele>
        <time>2011-07-30T12:40:54</time>
      </trkpt>
      <trkpt lat="42.57529" lon="1.95905">
        <ele>2328</ele>
        <time>2011-07-30T12:41:04</time>
      </trkpt>
      <trkpt lat="42.57532" lon="1.95919">
        <ele>2328</ele>
        <time>2011-07-30T12:41:13</time>
      </trkpt>
      <trkpt lat="42.57536" lon="1.95932">
        <ele>2320</ele>
        <time>2011-07-30T12:41:23</time>
      </trkpt>
      <trkpt lat="42.57537" lon="1.95946">
        <ele>2320</ele>
        <time>2011-07-30T12:41:31</time>
      </trkpt>
      <trkpt lat="42.5754" lon="1.9596">
        <ele>2315</ele>
        <time>2011-07-30T12:41:44</time>
      </trkpt>
      <trkpt lat="42.57539" lon="1.95974">
        <ele>2315</ele>
        <time>2011-07-30T12:41:51</time>
      </trkpt>
      <trkpt lat="42.57542" lon="1.95987">
        <ele>2315</ele>
        <time>2011-07-30T12:42:00</time>
      </trkpt>
      <trkpt lat="42.57543" lon="1.96001">
        <ele>2315</ele>
        <time>2011-07-30T12:42:07</time>
      </trkpt>
      <trkpt lat="42.57546" lon="1.96014">
        <ele>2315</ele>
        <time>2011-07-30T12:42:17</time>
      </trkpt>
      <trkpt lat="42.5755" lon="1.96027">
        <ele>2315</ele>
        <time>2011-07-30T12:42:27</time>
      </trkpt>
      <trkpt lat="42.57556" lon="1.96038">
        <ele>2315</ele>
        <time>2011-07-30T12:42:39</time>
      </trkpt>
      <trkpt lat="42.5756" lon="1.96051">
        <ele>2315</ele>
        <time>2011-07-30T12:42:47</time>
      </trkpt>
      <trkpt lat="42.57563" lon="1.96065">
        <ele>2315</ele>
        <time>2011-07-30T12:42:55</time>
      </trkpt>
      <trkpt lat="42.57567" lon="1.96077">
        <ele>2315</ele>
        <time>2011-07-30T12:43:02</time>
      </trkpt>
      <trkpt lat="42.57566" lon="1.96091">
        <ele>2315</ele>
        <time>2011-07-30T12:43:15</time>
      </trkpt>
      <trkpt lat="42.57567" lon="1.96105">
        <ele>2315</ele>
        <time>2011-07-30T12:43:24</time>
      </trkpt>
      <trkpt lat="42.5757" lon="1.96118">
        <ele>2315</ele>
        <time>2011-07-30T12:43:33</time>
      </trkpt>
      <trkpt lat="42.57571" lon="1.96132">
        <ele>2315</ele>
        <time>2011-07-30T12:43:45</time>
      </trkpt>
      <trkpt lat="42.57577" lon="1.96144">
        <ele>2315</ele>
        <time>2011-07-30T12:43:54</time>
      </trkpt>
      <trkpt lat="42.57582" lon="1.96157">
        <ele>2309</ele>
        <time>2011-07-30T12:44:04</time>
      </trkpt>
      <trkpt lat="42.57585" lon="1.96171">
        <ele>2309</ele>
        <time>2011-07-30T12:44:12</time>
      </trkpt>
      <trkpt lat="42.57589" lon="1.96182">
        <ele>2309</ele>
        <time>2011-07-30T12:44:25</time>
      </trkpt>
      <trkpt lat="42.57594" lon="1.96194">
        <ele>2309</ele>
        <time>2011-07-30T12:44:34</time>
      </trkpt>
      <trkpt lat="42.57602" lon="1.96202">
        <ele>2309</ele>
        <time>2011-07-30T12:44:41</time>
      </trkpt>
      <trkpt lat="42.5761" lon="1.96211">
        <ele>2309</ele>
        <time>2011-07-30T12:44:48</time>
      </trkpt>
      <trkpt lat="42.57618" lon="1.96219">
        <ele>2315</ele>
        <time>2011-07-30T12:44:57</time>
      </trkpt>
      <trkpt lat="42.57624" lon="1.96231">
        <ele>2315</ele>
        <time>2011-07-30T12:45:07</time>
      </trkpt>
      <trkpt lat="42.5763" lon="1.96243">
        <ele>2315</ele>
        <time>2011-07-30T12:45:16</time>
      </trkpt>
      <trkpt lat="42.57636" lon="1.96255">
        <ele>2309</ele>
        <time>2011-07-30T12:45:26</time>
      </trkpt>
      <trkpt lat="42.5764" lon="1.96268">
        <ele>2309</ele>
        <time>2011-07-30T12:45:34</time>
      </trkpt>
      <trkpt lat="42.57642" lon="1.96282">
        <ele>2309</ele>
        <time>2011-07-30T12:45:41</time>
      </trkpt>
      <trkpt lat="42.57648" lon="1.96293">
        <ele>2309</ele>
        <time>2011-07-30T12:45:49</time>
      </trkpt>
      <trkpt lat="42.57649" lon="1.96306">
        <ele>2309</ele>
        <time>2011-07-30T12:45:57</time>
      </trkpt>
      <trkpt lat="42.57647" lon="1.96321">
        <ele>2309</ele>
        <time>2011-07-30T12:46:05</time>
      </trkpt>
      <trkpt lat="42.5765" lon="1.96335">
        <ele>2309</ele>
        <time>2011-07-30T12:46:15</time>
      </trkpt>
      <trkpt lat="42.57654" lon="1.96348">
        <ele>2309</ele>
        <time>2011-07-30T12:46:25</time>
      </trkpt>
      <trkpt lat="42.5766" lon="1.96359">
        <ele>2309</ele>
        <time>2011-07-30T12:46:31</time>
      </trkpt>
      <trkpt lat="42.5766" lon="1.96373">
        <ele>2315</ele>
        <time>2011-07-30T12:46:53</time>
      </trkpt>
      <trkpt lat="42.57657" lon="1.96386">
        <ele>2315</ele>
        <time>2011-07-30T12:48:32</time>
      </trkpt>
      <trkpt lat="42.57657" lon="1.96373">
        <ele>2308</ele>
        <time>2011-07-30T12:49:58</time>
      </trkpt>
      <trkpt lat="42.57654" lon="1.96385">
        <ele>2323</ele>
        <time>2011-07-30T12:51:49</time>
      </trkpt>
      <trkpt lat="42.57657" lon="1.964">
        <ele>2314</ele>
        <time>2011-07-30T12:52:48</time>
      </trkpt>
      <trkpt lat="42.57667" lon="1.96405">
        <ele>2314</ele>
        <time>2011-07-30T12:52:58</time>
      </trkpt>
      <trkpt lat="42.5767" lon="1.96418">
        <ele>2314</ele>
        <time>2011-07-30T12:53:06</time>
      </trkpt>
      <trkpt lat="42.57668" lon="1.96433">
        <ele>2314</ele>
        <time>2011-07-30T12:53:16</time>
      </trkpt>
      <trkpt lat="42.57668" lon="1.96448">
        <ele>2314</ele>
        <time>2011-07-30T12:53:25</time>
      </trkpt>
      <trkpt lat="42.57666" lon="1.96462">
        <ele>2314</ele>
        <time>2011-07-30T12:53:33</time>
      </trkpt>
      <trkpt lat="42.57662" lon="1.96474">
        <ele>2314</ele>
        <time>2011-07-30T12:53:41</time>
      </trkpt>
      <trkpt lat="42.57662" lon="1.96488">
        <ele>2314</ele>
        <time>2011-07-30T12:53:49</time>
      </trkpt>
      <trkpt lat="42.5766" lon="1.965">
        <ele>2314</ele>
        <time>2011-07-30T12:54:02</time>
      </trkpt>
      <trkpt lat="42.57652" lon="1.9651">
        <ele>2314</ele>
        <time>2011-07-30T12:54:09</time>
      </trkpt>
      <trkpt lat="42.57648" lon="1.96522">
        <ele>2314</ele>
        <time>2011-07-30T12:54:16</time>
      </trkpt>
      <trkpt lat="42.57642" lon="1.96534">
        <ele>2314</ele>
        <time>2011-07-30T12:54:23</time>
      </trkpt>
      <trkpt lat="42.57632" lon="1.96535">
        <ele>2314</ele>
        <time>2011-07-30T12:55:11</time>
      </trkpt>
      <trkpt lat="42.57622" lon="1.96536">
        <ele>2309</ele>
        <time>2011-07-30T12:55:27</time>
      </trkpt>
      <trkpt lat="42.57616" lon="1.96549">
        <ele>2317</ele>
        <time>2011-07-30T12:57:13</time>
      </trkpt>
      <trkpt lat="42.5761" lon="1.9656">
        <ele>2317</ele>
        <time>2011-07-30T12:57:22</time>
      </trkpt>
      <trkpt lat="42.57608" lon="1.96575">
        <ele>2317</ele>
        <time>2011-07-30T12:57:30</time>
      </trkpt>
      <trkpt lat="42.57606" lon="1.96588">
        <ele>2317</ele>
        <time>2011-07-30T12:57:38</time>
      </trkpt>
      <trkpt lat="42.57602" lon="1.96601">
        <ele>2317</ele>
        <time>2011-07-30T12:57:45</time>
      </trkpt>
      <trkpt lat="42.57603" lon="1.96615">
        <ele>2317</ele>
        <time>2011-07-30T12:57:57</time>
      </trkpt>
      <trkpt lat="42.5761" lon="1.96624">
        <ele>2317</ele>
        <time>2011-07-30T12:58:05</time>
      </trkpt>
      <trkpt lat="42.57616" lon="1.96637">
        <ele>2308</ele>
        <time>2011-07-30T12:58:14</time>
      </trkpt>
      <trkpt lat="42.57616" lon="1.9665">
        <ele>2308</ele>
        <time>2011-07-30T12:58:26</time>
      </trkpt>
      <trkpt lat="42.57619" lon="1.96663">
        <ele>2308</ele>
        <time>2011-07-30T12:58:47</time>
      </trkpt>
      <trkpt lat="42.57617" lon="1.96676">
        <ele>2308</ele>
        <time>2011-07-30T12:58:55</time>
      </trkpt>
      <trkpt lat="42.57614" lon="1.96689">
        <ele>2308</ele>
        <time>2011-07-30T12:59:09</time>
      </trkpt>
      <trkpt lat="42.57612" lon="1.96702">
        <ele>2308</ele>
        <time>2011-07-30T12:59:19</time>
      </trkpt>
      <trkpt lat="42.57608" lon="1.96714">
        <ele>2313</ele>
        <time>2011-07-30T12:59:30</time>
      </trkpt>
      <trkpt lat="42.57602" lon="1.96727">
        <ele>2313</ele>
        <time>2011-07-30T12:59:38</time>
      </trkpt>
      <trkpt lat="42.576" lon="1.9674">
        <ele>2313</ele>
        <time>2011-07-30T13:00:01</time>
      </trkpt>
      <trkpt lat="42.57598" lon="1.96754">
        <ele>2313</ele>
        <time>2011-07-30T13:00:18</time>
      </trkpt>
      <trkpt lat="42.57589" lon="1.96762">
        <ele>2313</ele>
        <time>2011-07-30T13:00:29</time>
      </trkpt>
      <trkpt lat="42.57597" lon="1.96769">
        <ele>2313</ele>
        <time>2011-07-30T13:00:40</time>
      </trkpt>
      <trkpt lat="42.57592" lon="1.96781">
        <ele>2307</ele>
        <time>2011-07-30T13:00:54</time>
      </trkpt>
      <trkpt lat="42.57585" lon="1.96789">
        <ele>2307</ele>
        <time>2011-07-30T13:01:05</time>
      </trkpt>
      <trkpt lat="42.57585" lon="1.96804">
        <ele>2307</ele>
        <time>2011-07-30T13:01:15</time>
      </trkpt>
      <trkpt lat="42.57579" lon="1.96816">
        <ele>2307</ele>
        <time>2011-07-30T13:01:24</time>
      </trkpt>
      <trkpt lat="42.57577" lon="1.96831">
        <ele>2307</ele>
        <time>2011-07-30T13:01:33</time>
      </trkpt>
      <trkpt lat="42.57573" lon="1.96843">
        <ele>2307</ele>
        <time>2011-07-30T13:01:42</time>
      </trkpt>
      <trkpt lat="42.57566" lon="1.96853">
        <ele>2307</ele>
        <time>2011-07-30T13:01:56</time>
      </trkpt>
      <trkpt lat="42.57567" lon="1.96868">
        <ele>2307</ele>
        <time>2011-07-30T13:02:23</time>
      </trkpt>
      <trkpt lat="42.57559" lon="1.96878">
        <ele>2307</ele>
        <time>2011-07-30T13:02:37</time>
      </trkpt>
      <trkpt lat="42.57557" lon="1.96892">
        <ele>2307</ele>
        <time>2011-07-30T13:02:46</time>
      </trkpt>
      <trkpt lat="42.5755" lon="1.96904">
        <ele>2302</ele>
        <time>2011-07-30T13:02:53</time>
      </trkpt>
      <trkpt lat="42.5755" lon="1.96919">
        <ele>2302</ele>
        <time>2011-07-30T13:03:07</time>
      </trkpt>
      <trkpt lat="42.57557" lon="1.96929">
        <ele>2302</ele>
        <time>2011-07-30T13:03:13</time>
      </trkpt>
      <trkpt lat="42.57555" lon="1.96942">
        <ele>2302</ele>
        <time>2011-07-30T13:06:02</time>
      </trkpt>
      <trkpt lat="42.57554" lon="1.96956">
        <ele>2302</ele>
        <time>2011-07-30T13:06:17</time>
      </trkpt>
      <trkpt lat="42.57544" lon="1.96955">
        <ele>2293</ele>
        <time>2011-07-30T13:06:33</time>
      </trkpt>
      <trkpt lat="42.57537" lon="1.96967">
        <ele>2293</ele>
        <time>2011-07-30T13:06:50</time>
      </trkpt>
      <trkpt lat="42.57531" lon="1.96978">
        <ele>2285</ele>
        <time>2011-07-30T13:07:11</time>
      </trkpt>
      <trkpt lat="42.5753" lon="1.96992">
        <ele>2285</ele>
        <time>2011-07-30T13:07:25</time>
      </trkpt>
      <trkpt lat="42.57525" lon="1.97003">
        <ele>2285</ele>
        <time>2011-07-30T13:07:47</time>
      </trkpt>
      <trkpt lat="42.57525" lon="1.97017">
        <ele>2278</ele>
        <time>2011-07-30T13:08:01</time>
      </trkpt>
      <trkpt lat="42.57521" lon="1.97029">
        <ele>2278</ele>
        <time>2011-07-30T13:08:11</time>
      </trkpt>
      <trkpt lat="42.57515" lon="1.9704">
        <ele>2278</ele>
        <time>2011-07-30T13:08:18</time>
      </trkpt>
      <trkpt lat="42.5751" lon="1.97052">
        <ele>2267</ele>
        <time>2011-07-30T13:08:37</time>
      </trkpt>
      <trkpt lat="42.57505" lon="1.97064">
        <ele>2267</ele>
        <time>2011-07-30T13:08:44</time>
      </trkpt>
      <trkpt lat="42.575" lon="1.97076">
        <ele>2267</ele>
        <time>2011-07-30T13:08:53</time>
      </trkpt>
      <trkpt lat="42.57494" lon="1.97088">
        <ele>2267</ele>
        <time>2011-07-30T13:09:10</time>
      </trkpt>
      <trkpt lat="42.57492" lon="1.971">
        <ele>2267</ele>
        <time>2011-07-30T13:09:24</time>
      </trkpt>
      <trkpt lat="42.57492" lon="1.97115">
        <ele>2255</ele>
        <time>2011-07-30T13:09:38</time>
      </trkpt>
      <trkpt lat="42.57492" lon="1.97128">
        <ele>2255</ele>
        <time>2011-07-30T13:09:44</time>
      </trkpt>
      <trkpt lat="42.57486" lon="1.97139">
        <ele>2255</ele>
        <time>2011-07-30T13:09:53</time>
      </trkpt>
      <trkpt lat="42.57483" lon="1.97153">
        <ele>2255</ele>
        <time>2011-07-30T13:10:05</time>
      </trkpt>
      <trkpt lat="42.57477" lon="1.97164">
        <ele>2255</ele>
        <time>2011-07-30T13:10:15</time>
      </trkpt>
      <trkpt lat="42.57474" lon="1.97177">
        <ele>2249</ele>
        <time>2011-07-30T13:10:29</time>
      </trkpt>
      <trkpt lat="42.57467" lon="1.97186">
        <ele>2249</ele>
        <time>2011-07-30T13:10:41</time>
      </trkpt>
      <trkpt lat="42.57458" lon="1.9719">
        <ele>2249</ele>
        <time>2011-07-30T13:10:49</time>
      </trkpt>
      <trkpt lat="42.57451" lon="1.97201">
        <ele>2243</ele>
        <time>2011-07-30T13:11:06</time>
      </trkpt>
      <trkpt lat="42.57454" lon="1.97214">
        <ele>2243</ele>
        <time>2011-07-30T13:12:15</time>
      </trkpt>
      <trkpt lat="42.57447" lon="1.97226">
        <ele>2243</ele>
        <time>2011-07-30T13:12:28</time>
      </trkpt>
      <trkpt lat="42.5744" lon="1.97235">
        <ele>2243</ele>
        <time>2011-07-30T13:12:35</time>
      </trkpt>
      <trkpt lat="42.5743" lon="1.97239">
        <ele>2243</ele>
        <time>2011-07-30T13:12:57</time>
      </trkpt>
      <trkpt lat="42.57422" lon="1.97246">
        <ele>2243</ele>
        <time>2011-07-30T13:13:18</time>
      </trkpt>
      <trkpt lat="42.57413" lon="1.97253">
        <ele>2243</ele>
        <time>2011-07-30T13:13:25</time>
      </trkpt>
      <trkpt lat="42.57407" lon="1.97265">
        <ele>2243</ele>
        <time>2011-07-30T13:13:34</time>
      </trkpt>
      <trkpt lat="42.57399" lon="1.97275">
        <ele>2243</ele>
        <time>2011-07-30T13:13:40</time>
      </trkpt>
      <trkpt lat="42.57395" lon="1.97286">
        <ele>2237</ele>
        <time>2011-07-30T13:13:49</time>
      </trkpt>
      <trkpt lat="42.57389" lon="1.97298">
        <ele>2237</ele>
        <time>2011-07-30T13:14:05</time>
      </trkpt>
      <trkpt lat="42.57389" lon="1.97312">
        <ele>2237</ele>
        <time>2011-07-30T13:15:11</time>
      </trkpt>
      <trkpt lat="42.57387" lon="1.97327">
        <ele>2237</ele>
        <time>2011-07-30T13:15:19</time>
      </trkpt>
      <trkpt lat="42.57387" lon="1.97341">
        <ele>2237</ele>
        <time>2011-07-30T13:15:30</time>
      </trkpt>
      <trkpt lat="42.57383" lon="1.97355">
        <ele>2237</ele>
        <time>2011-07-30T13:15:41</time>
      </trkpt>
      <trkpt lat="42.57383" lon="1.97368">
        <ele>2247</ele>
        <time>2011-07-30T13:16:18</time>
      </trkpt>
      <trkpt lat="42.57379" lon="1.97381">
        <ele>2247</ele>
        <time>2011-07-30T13:16:28</time>
      </trkpt>
      <trkpt lat="42.57374" lon="1.97392">
        <ele>2247</ele>
        <time>2011-07-30T13:16:37</time>
      </trkpt>
      <trkpt lat="42.57371" lon="1.97406">
        <ele>2247</ele>
        <time>2011-07-30T13:16:45</time>
      </trkpt>
      <trkpt lat="42.57363" lon="1.97414">
        <ele>2247</ele>
        <time>2011-07-30T13:16:53</time>
      </trkpt>
      <trkpt lat="42.57355" lon="1.97424">
        <ele>2247</ele>
        <time>2011-07-30T13:17:00</time>
      </trkpt>
      <trkpt lat="42.57352" lon="1.97436">
        <ele>2247</ele>
        <time>2011-07-30T13:17:07</time>
      </trkpt>
      <trkpt lat="42.5735" lon="1.97451">
        <ele>2247</ele>
        <time>2011-07-30T13:17:15</time>
      </trkpt>
      <trkpt lat="42.57347" lon="1.97463">
        <ele>2247</ele>
        <time>2011-07-30T13:17:24</time>
      </trkpt>
      <trkpt lat="42.5734" lon="1.97474">
        <ele>2247</ele>
        <time>2011-07-30T13:17:33</time>
      </trkpt>
      <trkpt lat="42.57333" lon="1.97483">
        <ele>2239</ele>
        <time>2011-07-30T13:17:40</time>
      </trkpt>
      <trkpt lat="42.57324" lon="1.97492">
        <ele>2239</ele>
        <time>2011-07-30T13:17:46</time>
      </trkpt>
      <trkpt lat="42.57316" lon="1.975">
        <ele>2239</ele>
        <time>2011-07-30T13:17:52</time>
      </trkpt>
      <trkpt lat="42.5731" lon="1.97512">
        <ele>2239</ele>
        <time>2011-07-30T13:18:04</time>
      </trkpt>
      <trkpt lat="42.5731" lon="1.97526">
        <ele>2239</ele>
        <time>2011-07-30T13:18:11</time>
      </trkpt>
      <trkpt lat="42.57308" lon="1.97539">
        <ele>2239</ele>
        <time>2011-07-30T13:18:24</time>
      </trkpt>
      <trkpt lat="42.57302" lon="1.9755">
        <ele>2239</ele>
        <time>2011-07-30T13:18:33</time>
      </trkpt>
      <trkpt lat="42.57299" lon="1.97563">
        <ele>2232</ele>
        <time>2011-07-30T13:18:50</time>
      </trkpt>
      <trkpt lat="42.57291" lon="1.97571">
        <ele>2232</ele>
        <time>2011-07-30T13:19:01</time>
      </trkpt>
      <trkpt lat="42.57286" lon="1.97583">
        <ele>2232</ele>
        <time>2011-07-30T13:19:19</time>
      </trkpt>
      <trkpt lat="42.57278" lon="1.97593">
        <ele>2232</ele>
        <time>2011-07-30T13:19:29</time>
      </trkpt>
      <trkpt lat="42.57275" lon="1.97607">
        <ele>2232</ele>
        <time>2011-07-30T13:19:48</time>
      </trkpt>
      <trkpt lat="42.57268" lon="1.97619">
        <ele>2232</ele>
        <time>2011-07-30T13:19:57</time>
      </trkpt>
      <trkpt lat="42.57261" lon="1.97627">
        <ele>2232</ele>
        <time>2011-07-30T13:20:03</time>
      </trkpt>
      <trkpt lat="42.57258" lon="1.97639">
        <ele>2227</ele>
        <time>2011-07-30T13:20:13</time>
      </trkpt>
      <trkpt lat="42.57263" lon="1.97651">
        <ele>2227</ele>
        <time>2011-07-30T13:20:19</time>
      </trkpt>
      <trkpt lat="42.57255" lon="1.97662">
        <ele>2219</ele>
        <time>2011-07-30T13:20:41</time>
      </trkpt>
      <trkpt lat="42.57246" lon="1.97669">
        <ele>2219</ele>
        <time>2011-07-30T13:20:50</time>
      </trkpt>
      <trkpt lat="42.5724" lon="1.9768">
        <ele>2219</ele>
        <time>2011-07-30T13:21:00</time>
      </trkpt>
      <trkpt lat="42.57233" lon="1.9769">
        <ele>2219</ele>
        <time>2011-07-30T13:21:09</time>
      </trkpt>
      <trkpt lat="42.57233" lon="1.97703">
        <ele>2219</ele>
        <time>2011-07-30T13:21:27</time>
      </trkpt>
      <trkpt lat="42.57225" lon="1.97715">
        <ele>2219</ele>
        <time>2011-07-30T13:21:35</time>
      </trkpt>
      <trkpt lat="42.57218" lon="1.97724">
        <ele>2219</ele>
        <time>2011-07-30T13:21:55</time>
      </trkpt>
      <trkpt lat="42.57215" lon="1.97738">
        <ele>2213</ele>
        <time>2011-07-30T13:22:07</time>
      </trkpt>
      <trkpt lat="42.57206" lon="1.97747">
        <ele>2213</ele>
        <time>2011-07-30T13:22:14</time>
      </trkpt>
      <trkpt lat="42.57197" lon="1.97756">
        <ele>2213</ele>
        <time>2011-07-30T13:22:23</time>
      </trkpt>
      <trkpt lat="42.57193" lon="1.97769">
        <ele>2213</ele>
        <time>2011-07-30T13:22:31</time>
      </trkpt>
      <trkpt lat="42.57184" lon="1.97772">
        <ele>2213</ele>
        <time>2011-07-30T13:22:43</time>
      </trkpt>
      <trkpt lat="42.57176" lon="1.9778">
        <ele>2213</ele>
        <time>2011-07-30T13:22:55</time>
      </trkpt>
      <trkpt lat="42.57168" lon="1.97789">
        <ele>2213</ele>
        <time>2011-07-30T13:23:02</time>
      </trkpt>
      <trkpt lat="42.5716" lon="1.97798">
        <ele>2208</ele>
        <time>2011-07-30T13:23:11</time>
      </trkpt>
      <trkpt lat="42.57156" lon="1.97811">
        <ele>2208</ele>
        <time>2011-07-30T13:23:25</time>
      </trkpt>
      <trkpt lat="42.57148" lon="1.97821">
        <ele>2208</ele>
        <time>2011-07-30T13:23:36</time>
      </trkpt>
      <trkpt lat="42.5714" lon="1.97833">
        <ele>2208</ele>
        <time>2011-07-30T13:23:43</time>
      </trkpt>
      <trkpt lat="42.57135" lon="1.97845">
        <ele>2208</ele>
        <time>2011-07-30T13:23:53</time>
      </trkpt>
      <trkpt lat="42.57128" lon="1.97856">
        <ele>2200</ele>
        <time>2011-07-30T13:24:04</time>
      </trkpt>
      <trkpt lat="42.57119" lon="1.97864">
        <ele>2200</ele>
        <time>2011-07-30T13:24:40</time>
      </trkpt>
      <trkpt lat="42.57109" lon="1.97866">
        <ele>2200</ele>
        <time>2011-07-30T13:24:53</time>
      </trkpt>
      <trkpt lat="42.57107" lon="1.97879">
        <ele>2200</ele>
        <time>2011-07-30T13:25:17</time>
      </trkpt>
      <trkpt lat="42.57097" lon="1.97882">
        <ele>2200</ele>
        <time>2011-07-30T13:25:27</time>
      </trkpt>
      <trkpt lat="42.57087" lon="1.97884">
        <ele>2190</ele>
        <time>2011-07-30T13:26:01</time>
      </trkpt>
      <trkpt lat="42.57079" lon="1.97891">
        <ele>2190</ele>
        <time>2011-07-30T13:26:15</time>
      </trkpt>
      <trkpt lat="42.57069" lon="1.97893">
        <ele>2190</ele>
        <time>2011-07-30T13:26:42</time>
      </trkpt>
      <trkpt lat="42.5706" lon="1.97901">
        <ele>2190</ele>
        <time>2011-07-30T13:26:50</time>
      </trkpt>
      <trkpt lat="42.57051" lon="1.97909">
        <ele>2180</ele>
        <time>2011-07-30T13:27:01</time>
      </trkpt>
      <trkpt lat="42.57042" lon="1.97913">
        <ele>2180</ele>
        <time>2011-07-30T13:27:09</time>
      </trkpt>
      <trkpt lat="42.57033" lon="1.97922">
        <ele>2180</ele>
        <time>2011-07-30T13:27:19</time>
      </trkpt>
      <trkpt lat="42.57025" lon="1.97931">
        <ele>2180</ele>
        <time>2011-07-30T13:27:29</time>
      </trkpt>
      <trkpt lat="42.57023" lon="1.97944">
        <ele>2180</ele>
        <time>2011-07-30T13:27:35</time>
      </trkpt>
      <trkpt lat="42.57014" lon="1.97947">
        <ele>2180</ele>
        <time>2011-07-30T13:27:54</time>
      </trkpt>
      <trkpt lat="42.57004" lon="1.97944">
        <ele>2180</ele>
        <time>2011-07-30T13:28:02</time>
      </trkpt>
      <trkpt lat="42.56998" lon="1.97931">
        <ele>2180</ele>
        <time>2011-07-30T13:28:18</time>
      </trkpt>
      <trkpt lat="42.56988" lon="1.9793">
        <ele>2180</ele>
        <time>2011-07-30T13:28:29</time>
      </trkpt>
      <trkpt lat="42.56978" lon="1.9793">
        <ele>2180</ele>
        <time>2011-07-30T13:28:43</time>
      </trkpt>
      <trkpt lat="42.56971" lon="1.97939">
        <ele>2180</ele>
        <time>2011-07-30T13:28:52</time>
      </trkpt>
      <trkpt lat="42.56962" lon="1.97946">
        <ele>2185</ele>
        <time>2011-07-30T13:29:01</time>
      </trkpt>
      <trkpt lat="42.56959" lon="1.97958">
        <ele>2185</ele>
        <time>2011-07-30T13:29:14</time>
      </trkpt>
      <trkpt lat="42.56954" lon="1.97973">
        <ele>2191</ele>
        <time>2011-07-30T13:29:22</time>
      </trkpt>
      <trkpt lat="42.56946" lon="1.97982">
        <ele>2191</ele>
        <time>2011-07-30T13:29:26</time>
      </trkpt>
      <trkpt lat="42.56937" lon="1.97978">
        <ele>2184</ele>
        <time>2011-07-30T13:29:58</time>
      </trkpt>
      <trkpt lat="42.56935" lon="1.97991">
        <ele>2184</ele>
        <time>2011-07-30T13:30:46</time>
      </trkpt>
      <trkpt lat="42.56927" lon="1.98001">
        <ele>2184</ele>
        <time>2011-07-30T13:30:53</time>
      </trkpt>
      <trkpt lat="42.56919" lon="1.98012">
        <ele>2184</ele>
        <time>2011-07-30T13:30:59</time>
      </trkpt>
      <trkpt lat="42.56911" lon="1.98019">
        <ele>2184</ele>
        <time>2011-07-30T13:31:07</time>
      </trkpt>
      <trkpt lat="42.56905" lon="1.98031">
        <ele>2184</ele>
        <time>2011-07-30T13:31:15</time>
      </trkpt>
      <trkpt lat="42.569" lon="1.98043">
        <ele>2184</ele>
        <time>2011-07-30T13:31:21</time>
      </trkpt>
      <trkpt lat="42.56892" lon="1.98053">
        <ele>2195</ele>
        <time>2011-07-30T13:31:26</time>
      </trkpt>
      <trkpt lat="42.56887" lon="1.98064">
        <ele>2195</ele>
        <time>2011-07-30T13:31:33</time>
      </trkpt>
      <trkpt lat="42.56877" lon="1.98067">
        <ele>2187</ele>
        <time>2011-07-30T13:31:43</time>
      </trkpt>
      <trkpt lat="42.56867" lon="1.98068">
        <ele>2176</ele>
        <time>2011-07-30T13:32:00</time>
      </trkpt>
      <trkpt lat="42.56858" lon="1.98073">
        <ele>2176</ele>
        <time>2011-07-30T13:32:08</time>
      </trkpt>
      <trkpt lat="42.56849" lon="1.98077">
        <ele>2176</ele>
        <time>2011-07-30T13:32:20</time>
      </trkpt>
      <trkpt lat="42.5684" lon="1.98082">
        <ele>2176</ele>
        <time>2011-07-30T13:32:30</time>
      </trkpt>
      <trkpt lat="42.5683" lon="1.98088">
        <ele>2182</ele>
        <time>2011-07-30T13:32:46</time>
      </trkpt>
      <trkpt lat="42.56821" lon="1.98094">
        <ele>2182</ele>
        <time>2011-07-30T13:32:54</time>
      </trkpt>
      <trkpt lat="42.56816" lon="1.98106">
        <ele>2182</ele>
        <time>2011-07-30T13:33:02</time>
      </trkpt>
      <trkpt lat="42.56811" lon="1.98118">
        <ele>2182</ele>
        <time>2011-07-30T13:33:21</time>
      </trkpt>
      <trkpt lat="42.56802" lon="1.98127">
        <ele>2182</ele>
        <time>2011-07-30T13:33:30</time>
      </trkpt>
      <trkpt lat="42.56792" lon="1.98132">
        <ele>2182</ele>
        <time>2011-07-30T13:33:40</time>
      </trkpt>
      <trkpt lat="42.56784" lon="1.98141">
        <ele>2182</ele>
        <time>2011-07-30T13:33:48</time>
      </trkpt>
      <trkpt lat="42.56774" lon="1.98143">
        <ele>2177</ele>
        <time>2011-07-30T13:34:06</time>
      </trkpt>
      <trkpt lat="42.56771" lon="1.98156">
        <ele>2177</ele>
        <time>2011-07-30T13:34:17</time>
      </trkpt>
      <trkpt lat="42.56767" lon="1.98168">
        <ele>2184</ele>
        <time>2011-07-30T13:34:24</time>
      </trkpt>
      <trkpt lat="42.5676" lon="1.9818">
        <ele>2193</ele>
        <time>2011-07-30T13:34:31</time>
      </trkpt>
      <trkpt lat="42.56754" lon="1.98194">
        <ele>2184</ele>
        <time>2011-07-30T13:34:49</time>
      </trkpt>
      <trkpt lat="42.56749" lon="1.98205">
        <ele>2184</ele>
        <time>2011-07-30T13:35:01</time>
      </trkpt>
      <trkpt lat="42.56744" lon="1.98217">
        <ele>2184</ele>
        <time>2011-07-30T13:35:12</time>
      </trkpt>
      <trkpt lat="42.56735" lon="1.98226">
        <ele>2173</ele>
        <time>2011-07-30T13:35:24</time>
      </trkpt>
      <trkpt lat="42.56726" lon="1.98229">
        <ele>2173</ele>
        <time>2011-07-30T13:35:42</time>
      </trkpt>
      <trkpt lat="42.56717" lon="1.98233">
        <ele>2173</ele>
        <time>2011-07-30T13:35:50</time>
      </trkpt>
      <trkpt lat="42.56707" lon="1.98233">
        <ele>2173</ele>
        <time>2011-07-30T13:36:04</time>
      </trkpt>
      <trkpt lat="42.56699" lon="1.98241">
        <ele>2165</ele>
        <time>2011-07-30T13:36:18</time>
      </trkpt>
      <trkpt lat="42.56689" lon="1.98236">
        <ele>2165</ele>
        <time>2011-07-30T13:36:34</time>
      </trkpt>
      <trkpt lat="42.56681" lon="1.98243">
        <ele>2160</ele>
        <time>2011-07-30T13:36:47</time>
      </trkpt>
      <trkpt lat="42.56672" lon="1.98247">
        <ele>2160</ele>
        <time>2011-07-30T13:36:57</time>
      </trkpt>
      <trkpt lat="42.56667" lon="1.98259">
        <ele>2160</ele>
        <time>2011-07-30T13:37:05</time>
      </trkpt>
      <trkpt lat="42.56656" lon="1.98263">
        <ele>2160</ele>
        <time>2011-07-30T13:38:06</time>
      </trkpt>
      <trkpt lat="42.56648" lon="1.98269">
        <ele>2155</ele>
        <time>2011-07-30T13:38:21</time>
      </trkpt>
      <trkpt lat="42.56638" lon="1.98274">
        <ele>2155</ele>
        <time>2011-07-30T13:38:37</time>
      </trkpt>
      <trkpt lat="42.56631" lon="1.98265">
        <ele>2149</ele>
        <time>2011-07-30T13:38:51</time>
      </trkpt>
      <trkpt lat="42.5662" lon="1.98265">
        <ele>2149</ele>
        <time>2011-07-30T13:39:00</time>
      </trkpt>
      <trkpt lat="42.56612" lon="1.98273">
        <ele>2149</ele>
        <time>2011-07-30T13:39:09</time>
      </trkpt>
      <trkpt lat="42.56602" lon="1.98273">
        <ele>2142</ele>
        <time>2011-07-30T13:39:19</time>
      </trkpt>
      <trkpt lat="42.56591" lon="1.9827">
        <ele>2142</ele>
        <time>2011-07-30T13:39:30</time>
      </trkpt>
      <trkpt lat="42.56585" lon="1.98281">
        <ele>2148</ele>
        <time>2011-07-30T13:40:42</time>
      </trkpt>
      <trkpt lat="42.56575" lon="1.98278">
        <ele>2148</ele>
        <time>2011-07-30T13:40:56</time>
      </trkpt>
      <trkpt lat="42.56569" lon="1.9829">
        <ele>2148</ele>
        <time>2011-07-30T13:41:08</time>
      </trkpt>
      <trkpt lat="42.5656" lon="1.98295">
        <ele>2148</ele>
        <time>2011-07-30T13:41:18</time>
      </trkpt>
      <trkpt lat="42.56552" lon="1.98307">
        <ele>2148</ele>
        <time>2011-07-30T13:41:30</time>
      </trkpt>
      <trkpt lat="42.56546" lon="1.98318">
        <ele>2155</ele>
        <time>2011-07-30T13:41:41</time>
      </trkpt>
      <trkpt lat="42.56535" lon="1.9832">
        <ele>2149</ele>
        <time>2011-07-30T13:42:07</time>
      </trkpt>
      <trkpt lat="42.56528" lon="1.9833">
        <ele>2149</ele>
        <time>2011-07-30T13:42:13</time>
      </trkpt>
      <trkpt lat="42.56525" lon="1.98344">
        <ele>2149</ele>
        <time>2011-07-30T13:42:27</time>
      </trkpt>
      <trkpt lat="42.56522" lon="1.98357">
        <ele>2149</ele>
        <time>2011-07-30T13:42:41</time>
      </trkpt>
      <trkpt lat="42.56516" lon="1.98369">
        <ele>2149</ele>
        <time>2011-07-30T13:42:55</time>
      </trkpt>
      <trkpt lat="42.5651" lon="1.9838">
        <ele>2149</ele>
        <time>2011-07-30T13:43:55</time>
      </trkpt>
      <trkpt lat="42.56502" lon="1.98388">
        <ele>2149</ele>
        <time>2011-07-30T13:44:05</time>
      </trkpt>
      <trkpt lat="42.56496" lon="1.98399">
        <ele>2149</ele>
        <time>2011-07-30T13:44:16</time>
      </trkpt>
      <trkpt lat="42.56488" lon="1.98408">
        <ele>2149</ele>
        <time>2011-07-30T13:44:21</time>
      </trkpt>
      <trkpt lat="42.5648" lon="1.98419">
        <ele>2155</ele>
        <time>2011-07-30T13:44:27</time>
      </trkpt>
      <trkpt lat="42.56474" lon="1.98433">
        <ele>2155</ele>
        <time>2011-07-30T13:44:37</time>
      </trkpt>
      <trkpt lat="42.56476" lon="1.98446">
        <ele>2155</ele>
        <time>2011-07-30T13:44:43</time>
      </trkpt>
      <trkpt lat="42.56473" lon="1.98459">
        <ele>2149</ele>
        <time>2011-07-30T13:44:51</time>
      </trkpt>
      <trkpt lat="42.5647" lon="1.98475">
        <ele>2149</ele>
        <time>2011-07-30T13:45:07</time>
      </trkpt>
      <trkpt lat="42.56466" lon="1.98489">
        <ele>2155</ele>
        <time>2011-07-30T13:45:12</time>
      </trkpt>
      <trkpt lat="42.5646" lon="1.985">
        <ele>2155</ele>
        <time>2011-07-30T13:45:20</time>
      </trkpt>
      <trkpt lat="42.5645" lon="1.98505">
        <ele>2155</ele>
        <time>2011-07-30T13:45:30</time>
      </trkpt>
      <trkpt lat="42.5644" lon="1.98512">
        <ele>2155</ele>
        <time>2011-07-30T13:45:39</time>
      </trkpt>
      <trkpt lat="42.56436" lon="1.98524">
        <ele>2155</ele>
        <time>2011-07-30T13:45:52</time>
      </trkpt>
      <trkpt lat="42.56427" lon="1.98532">
        <ele>2148</ele>
        <time>2011-07-30T13:46:05</time>
      </trkpt>
      <trkpt lat="42.56435" lon="1.9854">
        <ele>2143</ele>
        <time>2011-07-30T13:46:14</time>
      </trkpt>
      <trkpt lat="42.56433" lon="1.98554">
        <ele>2143</ele>
        <time>2011-07-30T13:46:19</time>
      </trkpt>
      <trkpt lat="42.56425" lon="1.98562">
        <ele>2143</ele>
        <time>2011-07-30T13:46:28</time>
      </trkpt>
      <trkpt lat="42.56416" lon="1.98566">
        <ele>2143</ele>
        <time>2011-07-30T13:46:46</time>
      </trkpt>
      <trkpt lat="42.56409" lon="1.98578">
        <ele>2148</ele>
        <time>2011-07-30T13:46:54</time>
      </trkpt>
      <trkpt lat="42.56399" lon="1.98583">
        <ele>2148</ele>
        <time>2011-07-30T13:47:08</time>
      </trkpt>
      <trkpt lat="42.56391" lon="1.98589">
        <ele>2148</ele>
        <time>2011-07-30T13:47:18</time>
      </trkpt>
      <trkpt lat="42.5638" lon="1.98594">
        <ele>2148</ele>
        <time>2011-07-30T13:47:24</time>
      </trkpt>
      <trkpt lat="42.56372" lon="1.98602">
        <ele>2148</ele>
        <time>2011-07-30T13:47:36</time>
      </trkpt>
      <trkpt lat="42.56369" lon="1.98615">
        <ele>2135</ele>
        <time>2011-07-30T13:48:01</time>
      </trkpt>
      <trkpt lat="42.5636" lon="1.98619">
        <ele>2135</ele>
        <time>2011-07-30T13:48:14</time>
      </trkpt>
      <trkpt lat="42.56352" lon="1.98627">
        <ele>2135</ele>
        <time>2011-07-30T13:48:21</time>
      </trkpt>
      <trkpt lat="42.56343" lon="1.98636">
        <ele>2135</ele>
        <time>2011-07-30T13:48:39</time>
      </trkpt>
      <trkpt lat="42.56336" lon="1.98645">
        <ele>2135</ele>
        <time>2011-07-30T13:48:51</time>
      </trkpt>
      <trkpt lat="42.56336" lon="1.98659">
        <ele>2135</ele>
        <time>2011-07-30T13:49:08</time>
      </trkpt>
      <trkpt lat="42.56336" lon="1.98672">
        <ele>2135</ele>
        <time>2011-07-30T13:49:32</time>
      </trkpt>
      <trkpt lat="42.56326" lon="1.98676">
        <ele>2125</ele>
        <time>2011-07-30T13:49:47</time>
      </trkpt>
      <trkpt lat="42.5632" lon="1.98687">
        <ele>2125</ele>
        <time>2011-07-30T13:49:59</time>
      </trkpt>
      <trkpt lat="42.56314" lon="1.98697">
        <ele>2125</ele>
        <time>2011-07-30T13:50:37</time>
      </trkpt>
      <trkpt lat="42.56308" lon="1.98708">
        <ele>2115</ele>
        <time>2011-07-30T13:51:00</time>
      </trkpt>
      <trkpt lat="42.56298" lon="1.98714">
        <ele>2115</ele>
        <time>2011-07-30T13:51:09</time>
      </trkpt>
      <trkpt lat="42.56288" lon="1.98722">
        <ele>2115</ele>
        <time>2011-07-30T13:51:14</time>
      </trkpt>
      <trkpt lat="42.56278" lon="1.98722">
        <ele>2122</ele>
        <time>2011-07-30T13:51:24</time>
      </trkpt>
      <trkpt lat="42.5627" lon="1.98733">
        <ele>2129</ele>
        <time>2011-07-30T13:51:30</time>
      </trkpt>
      <trkpt lat="42.56261" lon="1.98742">
        <ele>2135</ele>
        <time>2011-07-30T13:51:35</time>
      </trkpt>
      <trkpt lat="42.56258" lon="1.98755">
        <ele>2135</ele>
        <time>2011-07-30T13:51:56</time>
      </trkpt>
      <trkpt lat="42.56261" lon="1.98768">
        <ele>2126</ele>
        <time>2011-07-30T13:52:19</time>
      </trkpt>
      <trkpt lat="42.56254" lon="1.98777">
        <ele>2126</ele>
        <time>2011-07-30T13:52:35</time>
      </trkpt>
      <trkpt lat="42.56251" lon="1.9879">
        <ele>2119</ele>
        <time>2011-07-30T13:52:53</time>
      </trkpt>
      <trkpt lat="42.56245" lon="1.98801">
        <ele>2127</ele>
        <time>2011-07-30T13:53:20</time>
      </trkpt>
      <trkpt lat="42.56235" lon="1.98797">
        <ele>2110</ele>
        <time>2011-07-30T13:53:46</time>
      </trkpt>
      <trkpt lat="42.56226" lon="1.98802">
        <ele>2100</ele>
        <time>2011-07-30T13:54:01</time>
      </trkpt>
      <trkpt lat="42.56217" lon="1.98808">
        <ele>2100</ele>
        <time>2011-07-30T13:54:14</time>
      </trkpt>
      <trkpt lat="42.56206" lon="1.98811">
        <ele>2108</ele>
        <time>2011-07-30T13:54:22</time>
      </trkpt>
      <trkpt lat="42.56197" lon="1.98814">
        <ele>2108</ele>
        <time>2011-07-30T13:54:32</time>
      </trkpt>
      <trkpt lat="42.56194" lon="1.98827">
        <ele>2108</ele>
        <time>2011-07-30T13:54:51</time>
      </trkpt>
      <trkpt lat="42.56186" lon="1.98835">
        <ele>2108</ele>
        <time>2011-07-30T13:55:08</time>
      </trkpt>
      <trkpt lat="42.56177" lon="1.9884">
        <ele>2108</ele>
        <time>2011-07-30T13:55:38</time>
      </trkpt>
      <trkpt lat="42.5617" lon="1.98851">
        <ele>2108</ele>
        <time>2011-07-30T13:55:45</time>
      </trkpt>
      <trkpt lat="42.56165" lon="1.98863">
        <ele>2108</ele>
        <time>2011-07-30T13:56:03</time>
      </trkpt>
      <trkpt lat="42.56162" lon="1.98875">
        <ele>2108</ele>
        <time>2011-07-30T13:56:18</time>
      </trkpt>
      <trkpt lat="42.56156" lon="1.98865">
        <ele>2099</ele>
        <time>2011-07-30T13:56:44</time>
      </trkpt>
      <trkpt lat="42.56151" lon="1.98876">
        <ele>2087</ele>
        <time>2011-07-30T13:57:05</time>
      </trkpt>
      <trkpt lat="42.5615" lon="1.98891">
        <ele>2087</ele>
        <time>2011-07-30T13:57:30</time>
      </trkpt>
      <trkpt lat="42.56141" lon="1.98902">
        <ele>2087</ele>
        <time>2011-07-30T13:57:39</time>
      </trkpt>
      <trkpt lat="42.56132" lon="1.9891">
        <ele>2087</ele>
        <time>2011-07-30T13:57:55</time>
      </trkpt>
      <trkpt lat="42.56123" lon="1.98915">
        <ele>2087</ele>
        <time>2011-07-30T13:58:14</time>
      </trkpt>
      <trkpt lat="42.5612" lon="1.98929">
        <ele>2102</ele>
        <time>2011-07-30T13:58:19</time>
      </trkpt>
      <trkpt lat="42.56116" lon="1.98943">
        <ele>2109</ele>
        <time>2011-07-30T13:58:26</time>
      </trkpt>
      <trkpt lat="42.56108" lon="1.98952">
        <ele>2109</ele>
        <time>2011-07-30T13:58:42</time>
      </trkpt>
      <trkpt lat="42.56098" lon="1.98955">
        <ele>2094</ele>
        <time>2011-07-30T13:59:03</time>
      </trkpt>
      <trkpt lat="42.56091" lon="1.98968">
        <ele>2094</ele>
        <time>2011-07-30T13:59:19</time>
      </trkpt>
      <trkpt lat="42.56095" lon="1.9898">
        <ele>2087</ele>
        <time>2011-07-30T13:59:35</time>
      </trkpt>
      <trkpt lat="42.56085" lon="1.98984">
        <ele>2087</ele>
        <time>2011-07-30T13:59:44</time>
      </trkpt>
      <trkpt lat="42.56077" lon="1.98997">
        <ele>2096</ele>
        <time>2011-07-30T13:59:58</time>
      </trkpt>
      <trkpt lat="42.56072" lon="1.99015">
        <ele>2096</ele>
        <time>2011-07-30T14:00:00</time>
      </trkpt>
      <trkpt lat="42.56062" lon="1.99019">
        <ele>2096</ele>
        <time>2011-07-30T14:00:07</time>
      </trkpt>
      <trkpt lat="42.56057" lon="1.99031">
        <ele>2102</ele>
        <time>2011-07-30T14:00:18</time>
      </trkpt>
      <trkpt lat="42.56045" lon="1.99043">
        <ele>2110</ele>
        <time>2011-07-30T14:00:24</time>
      </trkpt>
      <trkpt lat="42.56056" lon="1.99045">
        <ele>2121</ele>
        <time>2011-07-30T14:00:32</time>
      </trkpt>
      <trkpt lat="42.56052" lon="1.99058">
        <ele>2145</ele>
        <time>2011-07-30T14:01:11</time>
      </trkpt>
      <trkpt lat="42.5606" lon="1.99047">
        <ele>2133</ele>
        <time>2011-07-30T14:01:20</time>
      </trkpt>
      <trkpt lat="42.56067" lon="1.99038">
        <ele>2115</ele>
        <time>2011-07-30T14:01:27</time>
      </trkpt>
      <trkpt lat="42.56053" lon="1.99042">
        <ele>2125</ele>
        <time>2011-07-30T14:01:44</time>
      </trkpt>
      <trkpt lat="42.56041" lon="1.99053">
        <ele>2125</ele>
        <time>2011-07-30T14:01:46</time>
      </trkpt>
      <trkpt lat="42.56051" lon="1.9905">
        <ele>2104</ele>
        <time>2011-07-30T14:01:59</time>
      </trkpt>
      <trkpt lat="42.56041" lon="1.99055">
        <ele>2104</ele>
        <time>2011-07-30T14:02:03</time>
      </trkpt>
      <trkpt lat="42.56035" lon="1.99066">
        <ele>2104</ele>
        <time>2011-07-30T14:02:08</time>
      </trkpt>
      <trkpt lat="42.5603" lon="1.99077">
        <ele>2121</ele>
        <time>2011-07-30T14:02:21</time>
      </trkpt>
      <trkpt lat="42.56021" lon="1.99086">
        <ele>2126</ele>
        <time>2011-07-30T14:02:25</time>
      </trkpt>
      <trkpt lat="42.56032" lon="1.99084">
        <ele>2126</ele>
        <time>2011-07-30T14:02:30</time>
      </trkpt>
      <trkpt lat="42.56023" lon="1.99091">
        <ele>2097</ele>
        <time>2011-07-30T14:02:49</time>
      </trkpt>
      <trkpt lat="42.56018" lon="1.99103">
        <ele>2082</ele>
        <time>2011-07-30T14:03:05</time>
      </trkpt>
      <trkpt lat="42.56017" lon="1.99116">
        <ele>2082</ele>
        <time>2011-07-30T14:03:15</time>
      </trkpt>
      <trkpt lat="42.56012" lon="1.99128">
        <ele>2082</ele>
        <time>2011-07-30T14:03:21</time>
      </trkpt>
      <trkpt lat="42.56004" lon="1.99135">
        <ele>2089</ele>
        <time>2011-07-30T14:03:27</time>
      </trkpt>
      <trkpt lat="42.56013" lon="1.99142">
        <ele>2083</ele>
        <time>2011-07-30T14:03:40</time>
      </trkpt>
      <trkpt lat="42.56008" lon="1.99156">
        <ele>2083</ele>
        <time>2011-07-30T14:03:48</time>
      </trkpt>
      <trkpt lat="42.56003" lon="1.99167">
        <ele>2083</ele>
        <time>2011-07-30T14:04:04</time>
      </trkpt>
      <trkpt lat="42.55998" lon="1.99181">
        <ele>2083</ele>
        <time>2011-07-30T14:04:09</time>
      </trkpt>
      <trkpt lat="42.55993" lon="1.99194">
        <ele>2083</ele>
        <time>2011-07-30T14:04:16</time>
      </trkpt>
      <trkpt lat="42.56004" lon="1.99197">
        <ele>2083</ele>
        <time>2011-07-30T14:04:26</time>
      </trkpt>
      <trkpt lat="42.56006" lon="1.99211">
        <ele>2083</ele>
        <time>2011-07-30T14:04:35</time>
      </trkpt>
      <trkpt lat="42.55998" lon="1.99219">
        <ele>2083</ele>
        <time>2011-07-30T14:04:40</time>
      </trkpt>
      <trkpt lat="42.5599" lon="1.99229">
        <ele>2083</ele>
        <time>2011-07-30T14:04:44</time>
      </trkpt>
      <trkpt lat="42.55984" lon="1.9924">
        <ele>2088</ele>
        <time>2011-07-30T14:04:56</time>
      </trkpt>
      <trkpt lat="42.55991" lon="1.99252">
        <ele>2078</ele>
        <time>2011-07-30T14:05:20</time>
      </trkpt>
      <trkpt lat="42.55984" lon="1.99263">
        <ele>2078</ele>
        <time>2011-07-30T14:05:30</time>
      </trkpt>
      <trkpt lat="42.55987" lon="1.99276">
        <ele>2083</ele>
        <time>2011-07-30T14:05:40</time>
      </trkpt>
      <trkpt lat="42.55988" lon="1.99289">
        <ele>2083</ele>
        <time>2011-07-30T14:05:53</time>
      </trkpt>
      <trkpt lat="42.56" lon="1.99289">
        <ele>2083</ele>
        <time>2011-07-30T14:05:59</time>
      </trkpt>
      <trkpt lat="42.55994" lon="1.99301">
        <ele>2083</ele>
        <time>2011-07-30T14:06:03</time>
      </trkpt>
      <trkpt lat="42.56005" lon="1.99305">
        <ele>2075</ele>
        <time>2011-07-30T14:06:13</time>
      </trkpt>
      <trkpt lat="42.55999" lon="1.99316">
        <ele>2075</ele>
        <time>2011-07-30T14:06:21</time>
      </trkpt>
      <trkpt lat="42.56003" lon="1.99328">
        <ele>2075</ele>
        <time>2011-07-30T14:06:30</time>
      </trkpt>
      <trkpt lat="42.55995" lon="1.9934">
        <ele>2080</ele>
        <time>2011-07-30T14:06:39</time>
      </trkpt>
      <trkpt lat="42.55997" lon="1.99353">
        <ele>2080</ele>
        <time>2011-07-30T14:06:51</time>
      </trkpt>
      <trkpt lat="42.56006" lon="1.9936">
        <ele>2080</ele>
        <time>2011-07-30T14:07:00</time>
      </trkpt>
      <trkpt lat="42.56003" lon="1.99373">
        <ele>2080</ele>
        <time>2011-07-30T14:07:15</time>
      </trkpt>
      <trkpt lat="42.56009" lon="1.99385">
        <ele>2080</ele>
        <time>2011-07-30T14:07:39</time>
      </trkpt>
      <trkpt lat="42.56006" lon="1.99398">
        <ele>2072</ele>
        <time>2011-07-30T14:08:00</time>
      </trkpt>
      <trkpt lat="42.56015" lon="1.99402">
        <ele>2072</ele>
        <time>2011-07-30T14:08:15</time>
      </trkpt>
      <trkpt lat="42.56015" lon="1.99415">
        <ele>2063</ele>
        <time>2011-07-30T14:09:12</time>
      </trkpt>
      <trkpt lat="42.5602" lon="1.99427">
        <ele>2063</ele>
        <time>2011-07-30T14:09:30</time>
      </trkpt>
      <trkpt lat="42.56027" lon="1.99417">
        <ele>2063</ele>
        <time>2011-07-30T14:09:47</time>
      </trkpt>
      <trkpt lat="42.56027" lon="1.99431">
        <ele>2063</ele>
        <time>2011-07-30T14:10:08</time>
      </trkpt>
      <trkpt lat="42.56023" lon="1.99445">
        <ele>2063</ele>
        <time>2011-07-30T14:10:23</time>
      </trkpt>
      <trkpt lat="42.56026" lon="1.99457">
        <ele>2063</ele>
        <time>2011-07-30T14:11:04</time>
      </trkpt>
      <trkpt lat="42.56025" lon="1.99471">
        <ele>2063</ele>
        <time>2011-07-30T14:11:23</time>
      </trkpt>
      <trkpt lat="42.56022" lon="1.99484">
        <ele>2055</ele>
        <time>2011-07-30T14:11:44</time>
      </trkpt>
      <trkpt lat="42.56026" lon="1.99496">
        <ele>2055</ele>
        <time>2011-07-30T14:11:53</time>
      </trkpt>
      <trkpt lat="42.5602" lon="1.99509">
        <ele>2055</ele>
        <time>2011-07-30T14:12:13</time>
      </trkpt>
      <trkpt lat="42.56012" lon="1.99516">
        <ele>2055</ele>
        <time>2011-07-30T14:12:18</time>
      </trkpt>
      <trkpt lat="42.56008" lon="1.99528">
        <ele>2055</ele>
        <time>2011-07-30T14:12:44</time>
      </trkpt>
      <trkpt lat="42.56011" lon="1.99541">
        <ele>2049</ele>
        <time>2011-07-30T14:12:56</time>
      </trkpt>
      <trkpt lat="42.56003" lon="1.99553">
        <ele>2049</ele>
        <time>2011-07-30T14:13:02</time>
      </trkpt>
      <trkpt lat="42.56006" lon="1.99568">
        <ele>2049</ele>
        <time>2011-07-30T14:13:10</time>
      </trkpt>
      <trkpt lat="42.55998" lon="1.99578">
        <ele>2049</ele>
        <time>2011-07-30T14:13:22</time>
      </trkpt>
      <trkpt lat="42.5599" lon="1.99586">
        <ele>2049</ele>
        <time>2011-07-30T14:13:30</time>
      </trkpt>
      <trkpt lat="42.55988" lon="1.99599">
        <ele>2049</ele>
        <time>2011-07-30T14:13:37</time>
      </trkpt>
      <trkpt lat="42.55992" lon="1.99613">
        <ele>2049</ele>
        <time>2011-07-30T14:13:54</time>
      </trkpt>
      <trkpt lat="42.55993" lon="1.99626">
        <ele>2036</ele>
        <time>2011-07-30T14:14:19</time>
      </trkpt>
      <trkpt lat="42.55988" lon="1.9964">
        <ele>2036</ele>
        <time>2011-07-30T14:14:29</time>
      </trkpt>
      <trkpt lat="42.55981" lon="1.99651">
        <ele>2036</ele>
        <time>2011-07-30T14:14:36</time>
      </trkpt>
      <trkpt lat="42.55978" lon="1.99663">
        <ele>2031</ele>
        <time>2011-07-30T14:14:52</time>
      </trkpt>
      <trkpt lat="42.55976" lon="1.99677">
        <ele>2031</ele>
        <time>2011-07-30T14:15:02</time>
      </trkpt>
      <trkpt lat="42.55974" lon="1.9969">
        <ele>2024</ele>
        <time>2011-07-30T14:15:11</time>
      </trkpt>
      <trkpt lat="42.55976" lon="1.99703">
        <ele>2024</ele>
        <time>2011-07-30T14:15:17</time>
      </trkpt>
      <trkpt lat="42.55979" lon="1.99717">
        <ele>2024</ele>
        <time>2011-07-30T14:15:26</time>
      </trkpt>
      <trkpt lat="42.5598" lon="1.99731">
        <ele>2024</ele>
        <time>2011-07-30T14:15:35</time>
      </trkpt>
      <trkpt lat="42.55982" lon="1.99744">
        <ele>2024</ele>
        <time>2011-07-30T14:15:42</time>
      </trkpt>
      <trkpt lat="42.55976" lon="1.99755">
        <ele>2030</ele>
        <time>2011-07-30T14:15:50</time>
      </trkpt>
      <trkpt lat="42.55978" lon="1.99768">
        <ele>2030</ele>
        <time>2011-07-30T14:16:04</time>
      </trkpt>
      <trkpt lat="42.55982" lon="1.99781">
        <ele>2030</ele>
        <time>2011-07-30T14:16:16</time>
      </trkpt>
      <trkpt lat="42.55981" lon="1.99794">
        <ele>2024</ele>
        <time>2011-07-30T14:16:25</time>
      </trkpt>
      <trkpt lat="42.55982" lon="1.99808">
        <ele>2024</ele>
        <time>2011-07-30T14:16:30</time>
      </trkpt>
      <trkpt lat="42.55974" lon="1.99817">
        <ele>2024</ele>
        <time>2011-07-30T14:16:40</time>
      </trkpt>
      <trkpt lat="42.55974" lon="1.9983">
        <ele>2024</ele>
        <time>2011-07-30T14:16:49</time>
      </trkpt>
      <trkpt lat="42.55968" lon="1.99843">
        <ele>2024</ele>
        <time>2011-07-30T14:16:55</time>
      </trkpt>
      <trkpt lat="42.55969" lon="1.99856">
        <ele>2024</ele>
        <time>2011-07-30T14:17:06</time>
      </trkpt>
      <trkpt lat="42.55967" lon="1.9987">
        <ele>2024</ele>
        <time>2011-07-30T14:17:17</time>
      </trkpt>
      <trkpt lat="42.55964" lon="1.99887">
        <ele>2024</ele>
        <time>2011-07-30T14:17:36</time>
      </trkpt>
      <trkpt lat="42.5597" lon="1.99899">
        <ele>2024</ele>
        <time>2011-07-30T14:18:12</time>
      </trkpt>
      <trkpt lat="42.55968" lon="1.99912">
        <ele>2024</ele>
        <time>2011-07-30T14:18:30</time>
      </trkpt>
      <trkpt lat="42.55976" lon="1.99923">
        <ele>2024</ele>
        <time>2011-07-30T14:18:41</time>
      </trkpt>
      <trkpt lat="42.55969" lon="1.99934">
        <ele>2024</ele>
        <time>2011-07-30T14:18:56</time>
      </trkpt>
      <trkpt lat="42.55961" lon="1.99942">
        <ele>2016</ele>
        <time>2011-07-30T14:19:11</time>
      </trkpt>
      <trkpt lat="42.55969" lon="1.99965">
        <ele>2016</ele>
        <time>2011-07-30T14:19:26</time>
      </trkpt>
      <trkpt lat="42.55972" lon="2.00093">
        <ele>1989</ele>
        <time>2011-07-30T14:20:16</time>
      </trkpt>
      <trkpt lat="42.5597" lon="2.00076">
        <ele>1999</ele>
        <time>2011-07-30T14:20:18</time>
      </trkpt>
      <trkpt lat="42.55968" lon="2.00049">
        <ele>1989</ele>
        <time>2011-07-30T14:20:19</time>
      </trkpt>
      <trkpt lat="42.55947" lon="1.99969">
        <ele>1959</ele>
        <time>2011-07-30T14:20:20</time>
      </trkpt>
      <trkpt lat="42.55925" lon="1.9989">
        <ele>1920</ele>
        <time>2011-07-30T14:20:21</time>
      </trkpt>
      <trkpt lat="42.55933" lon="1.99899">
        <ele>1945</ele>
        <time>2011-07-30T14:20:24</time>
      </trkpt>
      <trkpt lat="42.55936" lon="1.99915">
        <ele>1971</ele>
        <time>2011-07-30T14:20:38</time>
      </trkpt>
      <trkpt lat="42.5594" lon="1.9993">
        <ele>1987</ele>
        <time>2011-07-30T14:20:42</time>
      </trkpt>
      <trkpt lat="42.55954" lon="1.99942">
        <ele>1999</ele>
        <time>2011-07-30T14:20:47</time>
      </trkpt>
      <trkpt lat="42.55957" lon="1.99954">
        <ele>2010</ele>
        <time>2011-07-30T14:20:53</time>
      </trkpt>
      <trkpt lat="42.55952" lon="1.99966">
        <ele>2010</ele>
        <time>2011-07-30T14:21:08</time>
      </trkpt>
      <trkpt lat="42.55962" lon="1.99973">
        <ele>2010</ele>
        <time>2011-07-30T14:23:10</time>
      </trkpt>
      <trkpt lat="42.55964" lon="1.99987">
        <ele>2010</ele>
        <time>2011-07-30T14:23:21</time>
      </trkpt>
    </trkseg>
  </trk>
</gpx>